ANA108 RJTT-KSFO
Flight info
| Callsign | ANA108 |
|---|---|
| Flight time | 9h 15m |
| Altitude | 35000 |
| Route | OPPAR UTIBO Y803 POROT Y809 IDLAN Y812 ADNAP OTR7 EMRON 42N160E 43N170E 43N180E 43N170W 44N160W/N0476F370 44N150W 43N140W 41N130W DCT TRYSH DCT AMAKR BDEGA4 |
| Aircraft | B77W/H-SDE1E2E3FGHIJ2J3J5M1P2RWY/LB1D1 |
Departure
| Time | 2026-05-04 18:48 |
|---|---|
| Airport | Tokyo Haneda International Airport (RJTT) |
Arrival
| Time | 2026-05-05 04:03 |
|---|---|
| Airport | San Francisco International Airport (KSFO) |
| Time | Latitude | Longitude | Altitude | Speed | Heading |
|---|---|---|---|---|---|
| 2026-05-04 18:21 | 35.54583 | 139.77017 | 28 ft | 0 kts | 240° |
| 2026-05-04 18:32 | 35.54589 | 139.77030 | 28 ft | 4 kts | 240° |
| 2026-05-04 18:32 | 35.54602 | 139.77059 | 26 ft | 4 kts | 240° |
| 2026-05-04 18:32 | 35.54614 | 139.77082 | 25 ft | 4 kts | 230° |
| 2026-05-04 18:32 | 35.54633 | 139.77101 | 26 ft | 4 kts | 192° |
| 2026-05-04 18:33 | 35.54659 | 139.77100 | 26 ft | 4 kts | 158° |
| 2026-05-04 18:33 | 35.54676 | 139.77089 | 25 ft | 0 kts | 150° |
| 2026-05-04 18:36 | 35.54676 | 139.77090 | 27 ft | 1 kts | 150° |
| 2026-05-04 18:36 | 35.54661 | 139.77100 | 27 ft | 5 kts | 150° |
| 2026-05-04 18:36 | 35.54621 | 139.77128 | 26 ft | 9 kts | 150° |
| 2026-05-04 18:36 | 35.54563 | 139.77175 | 26 ft | 10 kts | 133° |
| 2026-05-04 18:37 | 35.54569 | 139.77258 | 28 ft | 10 kts | 64° |
| 2026-05-04 18:37 | 35.54605 | 139.77334 | 29 ft | 10 kts | 59° |
| 2026-05-04 18:37 | 35.54641 | 139.77411 | 28 ft | 10 kts | 59° |
| 2026-05-04 18:37 | 35.54679 | 139.77489 | 31 ft | 11 kts | 59° |
| 2026-05-04 18:38 | 35.54687 | 139.77580 | 29 ft | 12 kts | 130° |
| 2026-05-04 18:38 | 35.54616 | 139.77634 | 26 ft | 12 kts | 151° |
| 2026-05-04 18:38 | 35.54543 | 139.77686 | 32 ft | 12 kts | 150° |
| 2026-05-04 18:38 | 35.54456 | 139.77747 | 27 ft | 17 kts | 150° |
| 2026-05-04 18:39 | 35.54338 | 139.77831 | 27 ft | 22 kts | 150° |
| 2026-05-04 18:39 | 35.54199 | 139.77930 | 28 ft | 23 kts | 150° |
| 2026-05-04 18:39 | 35.54098 | 139.78001 | 29 ft | 10 kts | 150° |
| 2026-05-04 18:39 | 35.54066 | 139.78071 | 28 ft | 10 kts | 80° |
| 2026-05-04 18:40 | 35.54099 | 139.78149 | 27 ft | 10 kts | 58° |
| 2026-05-04 18:40 | 35.54136 | 139.78225 | 28 ft | 10 kts | 59° |
| 2026-05-04 18:40 | 35.54181 | 139.78320 | 32 ft | 15 kts | 60° |
| 2026-05-04 18:40 | 35.54236 | 139.78435 | 27 ft | 17 kts | 59° |
| 2026-05-04 18:41 | 35.54296 | 139.78562 | 31 ft | 17 kts | 60° |
| 2026-05-04 18:41 | 35.54356 | 139.78689 | 36 ft | 17 kts | 60° |
| 2026-05-04 18:41 | 35.54416 | 139.78816 | 39 ft | 17 kts | 59° |
| 2026-05-04 18:41 | 35.54476 | 139.78943 | 44 ft | 17 kts | 60° |
| 2026-05-04 18:42 | 35.54538 | 139.79073 | 43 ft | 20 kts | 60° |
| 2026-05-04 18:42 | 35.54617 | 139.79239 | 36 ft | 24 kts | 60° |
| 2026-05-04 18:42 | 35.54701 | 139.79419 | 32 ft | 24 kts | 60° |
| 2026-05-04 18:42 | 35.54771 | 139.79564 | 30 ft | 12 kts | 59° |
| 2026-05-04 18:43 | 35.54799 | 139.79640 | 30 ft | 8 kts | 90° |
| 2026-05-04 18:43 | 35.54767 | 139.79694 | 28 ft | 8 kts | 146° |
| 2026-05-04 18:43 | 35.54713 | 139.79732 | 29 ft | 9 kts | 150° |
| 2026-05-04 18:43 | 35.54651 | 139.79776 | 29 ft | 11 kts | 150° |
| 2026-05-04 18:44 | 35.54575 | 139.79829 | 29 ft | 14 kts | 150° |
| 2026-05-04 18:44 | 35.54512 | 139.79873 | 27 ft | 17 kts | 149° |
| 2026-05-04 18:44 | 35.54363 | 139.79980 | 26 ft | 19 kts | 150° |
| 2026-05-04 18:44 | 35.54247 | 139.80062 | 31 ft | 19 kts | 150° |
| 2026-05-04 18:45 | 35.54131 | 139.80144 | 31 ft | 19 kts | 150° |
| 2026-05-04 18:45 | 35.54015 | 139.80226 | 28 ft | 19 kts | 150° |
| 2026-05-04 18:45 | 35.53948 | 139.80274 | 29 ft | 8 kts | 150° |
| 2026-05-04 18:45 | 35.53910 | 139.80323 | 31 ft | 8 kts | 108° |
| 2026-05-04 18:46 | 35.53924 | 139.80389 | 34 ft | 8 kts | 58° |
| 2026-05-04 18:46 | 35.53954 | 139.80448 | 37 ft | 8 kts | 58° |
| 2026-05-04 18:46 | 35.53996 | 139.80489 | 38 ft | 8 kts | 358° |
| 2026-05-04 18:46 | 35.54037 | 139.80467 | 37 ft | 0 kts | 330° |
| 2026-05-04 18:47 | 35.54047 | 139.80460 | 37 ft | 9 kts | 330° |
| 2026-05-04 18:47 | 35.54219 | 139.80338 | 33 ft | 58 kts | 329° |
| 2026-05-04 18:47 | 35.54761 | 139.79951 | 33 ft | 120 kts | 330° |
| 2026-05-04 18:47 | 35.55633 | 139.79328 | 44 ft | 166 kts | 329° |
| 2026-05-04 18:48 | 35.56625 | 139.78622 | 595 ft | 163 kts | 330° |
| 2026-05-04 18:48 | 35.57622 | 139.77975 | 1236 ft | 159 kts | 345° |
| 2026-05-04 18:48 | 35.58750 | 139.78161 | 1526 ft | 188 kts | 24° |
| 2026-05-04 18:48 | 35.59631 | 139.79536 | 1745 ft | 230 kts | 58° |
| 2026-05-04 18:49 | 35.59778 | 139.81650 | 1972 ft | 268 kts | 96° |
| 2026-05-04 18:49 | 35.59262 | 139.83897 | 2504 ft | 279 kts | 101° |
| 2026-05-04 18:49 | 35.58757 | 139.86216 | 3170 ft | 281 kts | 100° |
| 2026-05-04 18:49 | 35.58323 | 139.88570 | 3852 ft | 286 kts | 99° |
| 2026-05-04 18:50 | 35.58044 | 139.90165 | 4257 ft | 291 kts | 100° |
| 2026-05-04 18:50 | 35.57086 | 139.93263 | 5014 ft | 295 kts | 134° |
| 2026-05-04 18:50 | 35.55460 | 139.94701 | 5706 ft | 287 kts | 166° |
| 2026-05-04 18:50 | 35.53551 | 139.94902 | 6500 ft | 270 kts | 198° |
| 2026-05-04 18:51 | 35.51964 | 139.93853 | 7211 ft | 258 kts | 231° |
| 2026-05-04 18:51 | 35.50993 | 139.92066 | 7785 ft | 257 kts | 243° |
| 2026-05-04 18:51 | 35.49988 | 139.90166 | 8124 ft | 268 kts | 225° |
| 2026-05-04 18:51 | 35.48344 | 139.89133 | 8732 ft | 277 kts | 193° |
| 2026-05-04 18:52 | 35.46444 | 139.88774 | 9236 ft | 276 kts | 202° |
| 2026-05-04 18:52 | 35.44911 | 139.87439 | 9796 ft | 266 kts | 239° |
| 2026-05-04 18:52 | 35.44285 | 139.85380 | 10348 ft | 265 kts | 262° |
| 2026-05-04 18:52 | 35.43879 | 139.83135 | 10487 ft | 280 kts | 244° |
| 2026-05-04 18:53 | 35.42820 | 139.81062 | 10622 ft | 294 kts | 242° |
| 2026-05-04 18:53 | 35.41937 | 139.78738 | 10748 ft | 310 kts | 246° |
| 2026-05-04 18:53 | 35.40776 | 139.76404 | 10934 ft | 334 kts | 232° |
| 2026-05-04 18:53 | 35.39061 | 139.74394 | 11389 ft | 348 kts | 221° |
| 2026-05-04 18:54 | 35.36874 | 139.73017 | 12057 ft | 361 kts | 202° |
| 2026-05-04 18:54 | 35.34328 | 139.72651 | 12747 ft | 383 kts | 180° |
| 2026-05-04 18:54 | 35.31714 | 139.73610 | 13542 ft | 403 kts | 161° |
| 2026-05-04 18:54 | 35.29192 | 139.75243 | 14253 ft | 413 kts | 159° |
| 2026-05-04 18:55 | 35.26651 | 139.76861 | 15101 ft | 410 kts | 163° |
| 2026-05-04 18:55 | 35.21392 | 139.79458 | 16738 ft | 407 kts | 170° |
| 2026-05-04 18:55 | 35.18695 | 139.80535 | 17492 ft | 409 kts | 172° |
| 2026-05-04 18:56 | 35.15962 | 139.81564 | 18255 ft | 412 kts | 172° |
| 2026-05-04 18:56 | 35.13206 | 139.82588 | 18923 ft | 416 kts | 173° |
| 2026-05-04 18:56 | 35.10432 | 139.83623 | 19585 ft | 418 kts | 173° |
| 2026-05-04 18:56 | 35.07653 | 139.84669 | 20310 ft | 419 kts | 173° |
| 2026-05-04 18:57 | 35.04857 | 139.85725 | 20981 ft | 422 kts | 174° |
| 2026-05-04 18:57 | 35.02061 | 139.86886 | 21520 ft | 432 kts | 166° |
| 2026-05-04 18:57 | 34.99471 | 139.89031 | 21942 ft | 471 kts | 146° |
| 2026-05-04 18:57 | 34.97457 | 139.92326 | 22457 ft | 503 kts | 126° |
| 2026-05-04 18:58 | 34.96309 | 139.96460 | 22954 ft | 529 kts | 105° |
| 2026-05-04 18:58 | 34.96204 | 140.01034 | 23350 ft | 551 kts | 86° |
| 2026-05-04 18:58 | 34.96990 | 140.05648 | 23743 ft | 561 kts | 76° |
| 2026-05-04 18:58 | 34.98106 | 140.10228 | 24121 ft | 566 kts | 74° |
| 2026-05-04 18:59 | 34.99277 | 140.14825 | 24575 ft | 569 kts | 75° |
| 2026-05-04 18:59 | 35.00363 | 140.19405 | 25037 ft | 571 kts | 77° |
| 2026-05-04 18:59 | 35.01366 | 140.24095 | 25449 ft | 574 kts | 79° |
| 2026-05-04 18:59 | 35.02295 | 140.28844 | 25851 ft | 577 kts | 80° |
| 2026-05-04 19:00 | 35.03192 | 140.33633 | 26266 ft | 581 kts | 81° |
| 2026-05-04 19:00 | 35.04089 | 140.38458 | 26677 ft | 584 kts | 81° |
| 2026-05-04 19:00 | 35.05000 | 140.43297 | 27095 ft | 587 kts | 81° |
| 2026-05-04 19:00 | 35.05929 | 140.48158 | 27497 ft | 590 kts | 81° |
| 2026-05-04 19:01 | 35.06869 | 140.53056 | 27891 ft | 593 kts | 81° |
| 2026-05-04 19:01 | 35.07949 | 140.57934 | 28253 ft | 599 kts | 76° |
| 2026-05-04 19:01 | 35.09377 | 140.62737 | 28578 ft | 605 kts | 70° |
| 2026-05-04 19:01 | 35.10996 | 140.67503 | 28915 ft | 609 kts | 69° |
| 2026-05-04 19:02 | 35.12648 | 140.72287 | 29158 ft | 614 kts | 69° |
| 2026-05-04 19:02 | 35.13772 | 140.75541 | 29392 ft | 615 kts | 70° |
| 2026-05-04 19:02 | 35.15401 | 140.80292 | 29848 ft | 614 kts | 70° |
| 2026-05-04 19:02 | 35.17032 | 140.85107 | 30317 ft | 613 kts | 70° |
| 2026-05-04 19:03 | 35.18665 | 140.89987 | 30701 ft | 613 kts | 71° |
| 2026-05-04 19:03 | 35.20793 | 140.96412 | 31035 ft | 617 kts | 71° |
| 2026-05-04 19:03 | 35.21856 | 140.99637 | 31256 ft | 617 kts | 71° |
| 2026-05-04 19:03 | 35.23999 | 141.06144 | 31770 ft | 616 kts | 71° |
| 2026-05-04 19:04 | 35.25059 | 141.09363 | 32029 ft | 615 kts | 71° |
| 2026-05-04 19:04 | 35.27198 | 141.15865 | 32496 ft | 616 kts | 71° |
| 2026-05-04 19:04 | 35.28257 | 141.19084 | 32709 ft | 616 kts | 71° |
| 2026-05-04 19:04 | 35.29856 | 141.23949 | 33036 ft | 616 kts | 71° |
| 2026-05-04 19:05 | 35.31452 | 141.28812 | 33365 ft | 616 kts | 71° |
| 2026-05-04 19:05 | 35.33044 | 141.33670 | 33705 ft | 615 kts | 71° |
| 2026-05-04 19:05 | 35.34633 | 141.38524 | 34127 ft | 612 kts | 72° |
| 2026-05-04 19:05 | 35.36210 | 141.43351 | 34475 ft | 610 kts | 72° |
| 2026-05-04 19:06 | 35.37784 | 141.48180 | 34719 ft | 610 kts | 71° |
| 2026-05-04 19:06 | 35.39356 | 141.53012 | 34916 ft | 611 kts | 71° |
| 2026-05-04 19:06 | 35.42514 | 141.62750 | 35045 ft | 616 kts | 71° |
| 2026-05-04 19:07 | 35.45659 | 141.72467 | 35027 ft | 611 kts | 71° |
| 2026-05-04 19:07 | 35.48779 | 141.82133 | 35040 ft | 608 kts | 72° |
| 2026-05-04 19:08 | 35.51878 | 141.91775 | 35032 ft | 607 kts | 72° |
| 2026-05-04 19:08 | 35.54969 | 142.01427 | 35023 ft | 608 kts | 72° |
| 2026-05-04 19:09 | 35.58051 | 142.11080 | 35027 ft | 606 kts | 72° |
| 2026-05-04 19:09 | 35.61123 | 142.20725 | 35031 ft | 605 kts | 72° |
| 2026-05-04 19:10 | 35.64180 | 142.30358 | 35029 ft | 605 kts | 72° |
| 2026-05-04 19:10 | 35.67228 | 142.39999 | 35023 ft | 605 kts | 72° |
| 2026-05-04 19:11 | 35.70266 | 142.49638 | 35034 ft | 605 kts | 72° |
| 2026-05-04 19:11 | 35.73300 | 142.59294 | 35035 ft | 605 kts | 72° |
| 2026-05-04 19:12 | 35.77839 | 142.73804 | 35029 ft | 606 kts | 72° |
| 2026-05-04 19:13 | 35.80856 | 142.83485 | 35024 ft | 606 kts | 72° |
| 2026-05-04 19:13 | 35.83863 | 142.93170 | 35023 ft | 605 kts | 72° |
| 2026-05-04 19:14 | 35.86865 | 143.02868 | 35013 ft | 605 kts | 72° |
| 2026-05-04 19:14 | 35.89852 | 143.12553 | 35014 ft | 604 kts | 72° |
| 2026-05-04 19:15 | 35.92600 | 143.22322 | 35014 ft | 600 kts | 79° |
| 2026-05-04 19:15 | 35.94122 | 143.32320 | 35009 ft | 589 kts | 90° |
| 2026-05-04 19:16 | 35.95002 | 143.42292 | 35014 ft | 589 kts | 90° |
| 2026-05-04 19:16 | 35.96003 | 143.52331 | 35010 ft | 589 kts | 89° |
| 2026-05-04 19:17 | 35.97034 | 143.62358 | 35008 ft | 589 kts | 89° |
| 2026-05-04 19:17 | 35.98042 | 143.72379 | 35003 ft | 588 kts | 90° |
| 2026-05-04 19:18 | 35.99040 | 143.82404 | 34969 ft | 588 kts | 89° |
| 2026-05-04 19:18 | 36.00030 | 143.92413 | 35000 ft | 587 kts | 89° |
| 2026-05-04 19:19 | 36.01105 | 144.02408 | 35000 ft | 591 kts | 82° |
| 2026-05-04 19:19 | 36.02305 | 144.07297 | 34994 ft | 599 kts | 70° |
| 2026-05-04 19:19 | 36.04136 | 144.11927 | 35019 ft | 602 kts | 60° |
| 2026-05-04 19:19 | 36.06497 | 144.16189 | 34993 ft | 601 kts | 47° |
| 2026-05-04 19:20 | 36.09339 | 144.19951 | 35016 ft | 598 kts | 43° |
| 2026-05-04 19:20 | 36.15198 | 144.27276 | 34995 ft | 601 kts | 43° |
| 2026-05-04 19:21 | 36.21047 | 144.34722 | 34999 ft | 605 kts | 44° |
| 2026-05-04 19:21 | 36.26851 | 144.42319 | 35003 ft | 607 kts | 44° |
| 2026-05-04 19:22 | 36.32636 | 144.49961 | 34999 ft | 608 kts | 44° |
| 2026-05-04 19:22 | 36.38436 | 144.57622 | 34988 ft | 609 kts | 44° |
| 2026-05-04 19:23 | 36.44230 | 144.65273 | 34983 ft | 608 kts | 44° |
| 2026-05-04 19:23 | 36.50018 | 144.72928 | 34981 ft | 607 kts | 44° |
| 2026-05-04 19:24 | 36.55797 | 144.80592 | 34993 ft | 608 kts | 45° |
| 2026-05-04 19:24 | 36.61573 | 144.88272 | 34983 ft | 608 kts | 45° |
| 2026-05-04 19:25 | 36.67346 | 144.95967 | 34968 ft | 608 kts | 45° |
| 2026-05-04 19:25 | 36.73111 | 145.03670 | 34969 ft | 608 kts | 45° |
| 2026-05-04 19:26 | 36.78873 | 145.11386 | 34969 ft | 608 kts | 45° |
| 2026-05-04 19:26 | 36.84599 | 145.19073 | 34974 ft | 609 kts | 45° |
| 2026-05-04 19:27 | 36.90400 | 145.26878 | 34952 ft | 609 kts | 45° |
| 2026-05-04 19:27 | 36.96119 | 145.34591 | 34953 ft | 609 kts | 45° |
| 2026-05-04 19:28 | 37.01871 | 145.42369 | 34951 ft | 609 kts | 45° |
| 2026-05-04 19:28 | 37.07610 | 145.50149 | 34945 ft | 609 kts | 45° |
| 2026-05-04 19:29 | 37.13353 | 145.57950 | 34934 ft | 608 kts | 46° |
| 2026-05-04 19:29 | 37.18442 | 145.66396 | 34935 ft | 607 kts | 62° |
| 2026-05-04 19:30 | 37.22017 | 145.75924 | 34930 ft | 601 kts | 77° |
| 2026-05-04 19:30 | 37.24283 | 145.85960 | 34927 ft | 597 kts | 81° |
| 2026-05-04 19:31 | 37.26457 | 145.96015 | 34939 ft | 597 kts | 80° |
| 2026-05-04 19:31 | 37.28697 | 146.06071 | 34895 ft | 598 kts | 80° |
| 2026-05-04 19:32 | 37.30976 | 146.16107 | 34921 ft | 597 kts | 79° |
| 2026-05-04 19:32 | 37.33249 | 146.26131 | 34921 ft | 597 kts | 80° |
| 2026-05-04 19:33 | 37.35508 | 146.36170 | 34906 ft | 596 kts | 80° |
| 2026-05-04 19:33 | 37.37747 | 146.46195 | 34911 ft | 595 kts | 80° |
| 2026-05-04 19:34 | 37.39976 | 146.56217 | 34918 ft | 595 kts | 80° |
| 2026-05-04 19:34 | 37.42195 | 146.66237 | 34910 ft | 595 kts | 80° |
| 2026-05-04 19:35 | 37.44404 | 146.76255 | 34910 ft | 594 kts | 80° |
| 2026-05-04 19:35 | 37.46606 | 146.86281 | 34897 ft | 594 kts | 80° |
| 2026-05-04 19:36 | 37.48799 | 146.96316 | 34899 ft | 594 kts | 80° |
| 2026-05-04 19:36 | 37.50967 | 147.06278 | 34898 ft | 594 kts | 81° |
| 2026-05-04 19:37 | 37.53140 | 147.16306 | 34890 ft | 593 kts | 81° |
| 2026-05-04 19:37 | 37.55314 | 147.26382 | 34889 ft | 592 kts | 81° |
| 2026-05-04 19:38 | 37.57462 | 147.36385 | 34889 ft | 591 kts | 81° |
| 2026-05-04 19:38 | 37.59585 | 147.46315 | 34882 ft | 590 kts | 81° |
| 2026-05-04 19:39 | 37.61708 | 147.56285 | 34883 ft | 588 kts | 81° |
| 2026-05-04 19:39 | 37.63817 | 147.66249 | 34853 ft | 588 kts | 81° |
| 2026-05-04 19:40 | 37.65915 | 147.76202 | 34866 ft | 586 kts | 81° |
| 2026-05-04 19:40 | 37.68002 | 147.86144 | 34872 ft | 586 kts | 81° |
| 2026-05-04 19:41 | 37.70081 | 147.96095 | 34861 ft | 586 kts | 81° |
| 2026-05-04 19:41 | 37.72148 | 148.06030 | 34872 ft | 585 kts | 81° |
| 2026-05-04 19:42 | 37.74203 | 148.15960 | 34870 ft | 585 kts | 81° |
| 2026-05-04 19:42 | 37.76252 | 148.25901 | 34859 ft | 584 kts | 81° |
| 2026-05-04 19:43 | 37.78291 | 148.35839 | 34862 ft | 584 kts | 81° |
| 2026-05-04 19:43 | 37.80320 | 148.45778 | 34861 ft | 583 kts | 81° |
| 2026-05-04 19:44 | 37.82340 | 148.55714 | 34857 ft | 583 kts | 81° |
| 2026-05-04 19:44 | 37.84349 | 148.65649 | 34855 ft | 583 kts | 81° |
| 2026-05-04 19:45 | 37.86349 | 148.75583 | 34853 ft | 583 kts | 81° |
| 2026-05-04 19:45 | 37.88343 | 148.85533 | 34853 ft | 583 kts | 81° |
| 2026-05-04 19:46 | 37.90324 | 148.95469 | 34858 ft | 583 kts | 81° |
| 2026-05-04 19:46 | 37.92300 | 149.05426 | 34840 ft | 583 kts | 81° |
| 2026-05-04 19:47 | 37.94265 | 149.15374 | 34849 ft | 583 kts | 81° |
| 2026-05-04 19:47 | 37.96224 | 149.25334 | 34855 ft | 583 kts | 81° |
| 2026-05-04 19:48 | 37.98173 | 149.35300 | 34850 ft | 583 kts | 82° |
| 2026-05-04 19:48 | 37.99788 | 149.43594 | 34848 ft | 583 kts | 82° |
| 2026-05-04 19:49 | 38.02049 | 149.55256 | 34851 ft | 583 kts | 82° |
| 2026-05-04 19:49 | 38.03649 | 149.63553 | 34834 ft | 583 kts | 82° |
| 2026-05-04 19:50 | 38.05566 | 149.73529 | 34850 ft | 581 kts | 81° |
| 2026-05-04 19:50 | 38.07468 | 149.83491 | 34845 ft | 580 kts | 81° |
| 2026-05-04 19:51 | 38.09374 | 149.93434 | 34842 ft | 581 kts | 79° |
| 2026-05-04 19:51 | 38.12116 | 150.03138 | 34843 ft | 586 kts | 68° |
| 2026-05-04 19:52 | 38.16006 | 150.12264 | 34840 ft | 588 kts | 61° |
| 2026-05-04 19:52 | 38.20175 | 150.21204 | 34861 ft | 588 kts | 60° |
| 2026-05-04 19:53 | 38.24291 | 150.30128 | 34824 ft | 589 kts | 61° |
| 2026-05-04 19:53 | 38.28380 | 150.39156 | 34831 ft | 589 kts | 62° |
| 2026-05-04 19:54 | 38.32453 | 150.48223 | 34809 ft | 590 kts | 62° |
| 2026-05-04 19:54 | 38.36519 | 150.57293 | 34825 ft | 589 kts | 62° |
| 2026-05-04 19:55 | 38.40582 | 150.66369 | 34814 ft | 589 kts | 62° |
| 2026-05-04 19:55 | 38.44636 | 150.75445 | 34785 ft | 589 kts | 62° |
| 2026-05-04 19:56 | 38.48673 | 150.84508 | 34809 ft | 588 kts | 62° |
| 2026-05-04 19:56 | 38.52708 | 150.93594 | 34806 ft | 587 kts | 62° |
| 2026-05-04 19:57 | 38.56728 | 151.02673 | 34802 ft | 587 kts | 62° |
| 2026-05-04 19:57 | 38.60732 | 151.11741 | 34792 ft | 585 kts | 62° |
| 2026-05-04 19:58 | 38.64724 | 151.20809 | 34794 ft | 584 kts | 62° |
| 2026-05-04 19:58 | 38.68701 | 151.29869 | 34794 ft | 583 kts | 62° |
| 2026-05-04 19:59 | 38.72664 | 151.38920 | 34817 ft | 583 kts | 63° |
| 2026-05-04 19:59 | 38.76624 | 151.47990 | 34789 ft | 583 kts | 63° |
| 2026-05-04 20:00 | 38.80575 | 151.57071 | 34788 ft | 583 kts | 63° |
| 2026-05-04 20:00 | 38.84494 | 151.66106 | 34776 ft | 584 kts | 63° |
| 2026-05-04 20:01 | 38.88435 | 151.75212 | 34785 ft | 584 kts | 63° |
| 2026-05-04 20:01 | 38.92373 | 151.84339 | 34777 ft | 584 kts | 63° |
| 2026-05-04 20:02 | 38.96302 | 151.93471 | 34767 ft | 584 kts | 63° |
| 2026-05-04 20:02 | 39.00221 | 152.02607 | 34771 ft | 583 kts | 63° |
| 2026-05-04 20:03 | 39.04128 | 152.11741 | 34775 ft | 582 kts | 63° |
| 2026-05-04 20:03 | 39.08021 | 152.20871 | 34772 ft | 582 kts | 63° |
| 2026-05-04 20:04 | 39.11901 | 152.29996 | 34772 ft | 581 kts | 63° |
| 2026-05-04 20:04 | 39.15771 | 152.39125 | 34771 ft | 580 kts | 63° |
| 2026-05-04 20:05 | 39.19633 | 152.48263 | 34770 ft | 580 kts | 63° |
| 2026-05-04 20:05 | 39.23483 | 152.57398 | 34760 ft | 579 kts | 63° |
| 2026-05-04 20:06 | 39.27332 | 152.66557 | 34765 ft | 581 kts | 63° |
| 2026-05-04 20:06 | 39.31181 | 152.75743 | 34761 ft | 582 kts | 63° |
| 2026-05-04 20:07 | 39.35024 | 152.84943 | 34751 ft | 581 kts | 64° |
| 2026-05-04 20:07 | 39.38854 | 152.94139 | 34754 ft | 581 kts | 64° |
| 2026-05-04 20:08 | 39.42669 | 153.03326 | 34756 ft | 580 kts | 64° |
| 2026-05-04 20:08 | 39.46481 | 153.12534 | 34749 ft | 580 kts | 64° |
| 2026-05-04 20:09 | 39.50272 | 153.21718 | 34748 ft | 578 kts | 64° |
| 2026-05-04 20:09 | 39.54051 | 153.30901 | 34746 ft | 577 kts | 64° |
| 2026-05-04 20:10 | 39.57815 | 153.40075 | 34744 ft | 576 kts | 64° |
| 2026-05-04 20:10 | 39.61566 | 153.49244 | 34737 ft | 575 kts | 64° |
| 2026-05-04 20:11 | 39.65296 | 153.58390 | 34733 ft | 573 kts | 64° |
| 2026-05-04 20:11 | 39.69017 | 153.67542 | 34736 ft | 573 kts | 64° |
| 2026-05-04 20:12 | 39.72698 | 153.76623 | 34730 ft | 572 kts | 64° |
| 2026-05-04 20:12 | 39.76397 | 153.85770 | 34748 ft | 572 kts | 64° |
| 2026-05-04 20:13 | 39.80116 | 153.95002 | 34740 ft | 573 kts | 64° |
| 2026-05-04 20:13 | 39.83813 | 154.04209 | 34737 ft | 575 kts | 64° |
| 2026-05-04 20:14 | 39.87505 | 154.13428 | 34731 ft | 574 kts | 64° |
| 2026-05-04 20:14 | 39.91192 | 154.22659 | 34728 ft | 574 kts | 64° |
| 2026-05-04 20:15 | 39.94868 | 154.31894 | 34724 ft | 574 kts | 65° |
| 2026-05-04 20:15 | 39.98535 | 154.41134 | 34724 ft | 573 kts | 65° |
| 2026-05-04 20:16 | 40.02185 | 154.50361 | 34724 ft | 572 kts | 65° |
| 2026-05-04 20:16 | 40.05827 | 154.59594 | 34716 ft | 571 kts | 65° |
| 2026-05-04 20:17 | 40.09450 | 154.68808 | 34706 ft | 570 kts | 65° |
| 2026-05-04 20:17 | 40.13063 | 154.78025 | 34713 ft | 569 kts | 65° |
| 2026-05-04 20:18 | 40.16658 | 154.87226 | 34721 ft | 568 kts | 65° |
| 2026-05-04 20:18 | 40.20218 | 154.96365 | 34720 ft | 568 kts | 65° |
| 2026-05-04 20:19 | 40.23792 | 155.05568 | 34715 ft | 567 kts | 65° |
| 2026-05-04 20:19 | 40.27359 | 155.14780 | 34721 ft | 568 kts | 65° |
| 2026-05-04 20:20 | 40.30925 | 155.24021 | 34718 ft | 569 kts | 65° |
| 2026-05-04 20:20 | 40.34490 | 155.33285 | 34717 ft | 570 kts | 65° |
| 2026-05-04 20:21 | 40.38051 | 155.42567 | 34718 ft | 570 kts | 65° |
| 2026-05-04 20:21 | 40.43386 | 155.56531 | 34718 ft | 571 kts | 65° |
| 2026-05-04 20:22 | 40.46936 | 155.65859 | 34706 ft | 571 kts | 65° |
| 2026-05-04 20:22 | 40.50463 | 155.75157 | 34711 ft | 570 kts | 65° |
| 2026-05-04 20:23 | 40.53907 | 155.84265 | 34717 ft | 569 kts | 66° |
| 2026-05-04 20:23 | 40.57423 | 155.93590 | 34710 ft | 568 kts | 65° |
| 2026-05-04 20:24 | 40.60922 | 156.02901 | 34714 ft | 567 kts | 65° |
| 2026-05-04 20:24 | 40.64407 | 156.12206 | 34711 ft | 566 kts | 66° |
| 2026-05-04 20:25 | 40.67880 | 156.21508 | 34710 ft | 566 kts | 66° |
| 2026-05-04 20:25 | 40.71344 | 156.30813 | 34708 ft | 565 kts | 66° |
| 2026-05-04 20:26 | 40.74796 | 156.40120 | 34719 ft | 565 kts | 66° |
| 2026-05-04 20:26 | 40.78246 | 156.49447 | 34717 ft | 565 kts | 66° |
| 2026-05-04 20:27 | 40.81685 | 156.58778 | 34701 ft | 565 kts | 65° |
| 2026-05-04 20:27 | 40.85119 | 156.68123 | 34721 ft | 565 kts | 66° |
| 2026-05-04 20:28 | 40.88544 | 156.77473 | 34728 ft | 565 kts | 66° |
| 2026-05-04 20:28 | 40.91961 | 156.86834 | 34721 ft | 565 kts | 66° |
| 2026-05-04 20:29 | 40.95369 | 156.96199 | 34718 ft | 564 kts | 66° |
| 2026-05-04 20:29 | 40.98740 | 157.05493 | 34721 ft | 564 kts | 66° |
| 2026-05-04 20:30 | 41.02121 | 157.14844 | 34712 ft | 563 kts | 66° |
| 2026-05-04 20:30 | 41.05491 | 157.24198 | 34712 ft | 562 kts | 66° |
| 2026-05-04 20:31 | 41.08851 | 157.33551 | 34709 ft | 562 kts | 66° |
| 2026-05-04 20:31 | 41.12197 | 157.42898 | 34717 ft | 561 kts | 66° |
| 2026-05-04 20:32 | 41.15539 | 157.52262 | 34713 ft | 561 kts | 66° |
| 2026-05-04 20:32 | 41.18867 | 157.61620 | 34711 ft | 561 kts | 66° |
| 2026-05-04 20:33 | 41.22191 | 157.70995 | 34727 ft | 562 kts | 66° |
| 2026-05-04 20:33 | 41.25514 | 157.80402 | 34726 ft | 563 kts | 66° |
| 2026-05-04 20:34 | 41.28275 | 157.88241 | 34706 ft | 563 kts | 66° |
| 2026-05-04 20:34 | 41.32146 | 157.99268 | 34712 ft | 563 kts | 66° |
| 2026-05-04 20:35 | 41.34895 | 158.07124 | 34720 ft | 563 kts | 66° |
| 2026-05-04 20:35 | 41.38192 | 158.16576 | 34721 ft | 563 kts | 66° |
| 2026-05-04 20:36 | 41.42012 | 158.27569 | 34716 ft | 562 kts | 66° |
| 2026-05-04 20:36 | 41.44754 | 158.35485 | 34713 ft | 561 kts | 66° |
| 2026-05-04 20:37 | 41.48018 | 158.44935 | 34716 ft | 561 kts | 66° |
| 2026-05-04 20:37 | 41.51267 | 158.54376 | 34718 ft | 560 kts | 66° |
| 2026-05-04 20:38 | 41.54505 | 158.63819 | 34721 ft | 559 kts | 66° |
| 2026-05-04 20:38 | 41.57736 | 158.73269 | 34721 ft | 559 kts | 66° |
| 2026-05-04 20:39 | 41.60954 | 158.82717 | 34712 ft | 559 kts | 66° |
| 2026-05-04 20:39 | 41.64165 | 158.92173 | 34708 ft | 558 kts | 66° |
| 2026-05-04 20:40 | 41.67363 | 159.01624 | 34743 ft | 558 kts | 66° |
| 2026-05-04 20:40 | 41.70537 | 159.11039 | 34723 ft | 559 kts | 66° |
| 2026-05-04 20:41 | 41.73731 | 159.20544 | 34712 ft | 560 kts | 66° |
| 2026-05-04 20:41 | 41.76917 | 159.30060 | 34715 ft | 560 kts | 66° |
| 2026-05-04 20:42 | 41.80099 | 159.39593 | 34715 ft | 561 kts | 66° |
| 2026-05-04 20:42 | 41.83275 | 159.49142 | 34716 ft | 561 kts | 66° |
| 2026-05-04 20:43 | 41.86441 | 159.58698 | 34718 ft | 560 kts | 66° |
| 2026-05-04 20:43 | 41.89599 | 159.68261 | 34723 ft | 560 kts | 66° |
| 2026-05-04 20:44 | 41.92744 | 159.77817 | 34722 ft | 559 kts | 66° |
| 2026-05-04 20:44 | 41.95877 | 159.87371 | 34710 ft | 559 kts | 66° |
| 2026-05-04 20:45 | 41.98965 | 159.96953 | 34715 ft | 558 kts | 69° |
| 2026-05-04 20:45 | 42.01151 | 160.06924 | 34720 ft | 555 kts | 81° |
| 2026-05-04 20:46 | 42.02557 | 160.17114 | 34727 ft | 554 kts | 82° |
| 2026-05-04 20:46 | 42.03949 | 160.27312 | 34729 ft | 554 kts | 81° |
| 2026-05-04 20:47 | 42.05379 | 160.37504 | 34730 ft | 554 kts | 81° |
| 2026-05-04 20:47 | 42.06824 | 160.47676 | 34734 ft | 554 kts | 81° |
| 2026-05-04 20:48 | 42.08262 | 160.57856 | 34734 ft | 553 kts | 81° |
| 2026-05-04 20:48 | 42.09685 | 160.68015 | 34736 ft | 552 kts | 81° |
| 2026-05-04 20:49 | 42.11095 | 160.78166 | 34745 ft | 551 kts | 81° |
| 2026-05-04 20:49 | 42.12493 | 160.88312 | 34743 ft | 551 kts | 81° |
| 2026-05-04 20:50 | 42.13881 | 160.98456 | 34747 ft | 550 kts | 81° |
| 2026-05-04 20:50 | 42.15261 | 161.08596 | 34748 ft | 550 kts | 81° |
| 2026-05-04 20:51 | 42.16630 | 161.18736 | 34754 ft | 550 kts | 81° |
| 2026-05-04 20:51 | 42.17990 | 161.28881 | 34748 ft | 551 kts | 81° |
| 2026-05-04 20:52 | 42.19343 | 161.39039 | 34759 ft | 551 kts | 81° |
| 2026-05-04 20:52 | 42.20691 | 161.49231 | 34763 ft | 552 kts | 81° |
| 2026-05-04 20:53 | 42.22030 | 161.59431 | 34768 ft | 553 kts | 80° |
| 2026-05-04 20:53 | 42.23364 | 161.69665 | 34765 ft | 554 kts | 81° |
| 2026-05-04 20:54 | 42.24692 | 161.79924 | 34765 ft | 555 kts | 81° |
| 2026-05-04 20:54 | 42.26011 | 161.90190 | 34767 ft | 555 kts | 81° |
| 2026-05-04 20:55 | 42.27322 | 162.00465 | 34771 ft | 555 kts | 81° |
| 2026-05-04 20:55 | 42.28613 | 162.10666 | 34773 ft | 555 kts | 81° |
| 2026-05-04 20:56 | 42.29905 | 162.20951 | 34775 ft | 555 kts | 81° |
| 2026-05-04 20:56 | 42.31186 | 162.31229 | 34775 ft | 554 kts | 81° |
| 2026-05-04 20:57 | 42.32456 | 162.41487 | 34785 ft | 553 kts | 81° |
| 2026-05-04 20:57 | 42.33715 | 162.51740 | 34785 ft | 552 kts | 81° |
| 2026-05-04 20:58 | 42.34962 | 162.61971 | 34790 ft | 552 kts | 81° |
| 2026-05-04 20:58 | 42.36198 | 162.72193 | 34793 ft | 550 kts | 81° |
| 2026-05-04 20:59 | 42.37423 | 162.82398 | 34797 ft | 549 kts | 81° |
| 2026-05-04 20:59 | 42.38635 | 162.92581 | 34799 ft | 548 kts | 81° |
| 2026-05-04 21:00 | 42.39838 | 163.02768 | 34806 ft | 548 kts | 81° |
| 2026-05-04 21:00 | 42.41033 | 163.12965 | 34818 ft | 549 kts | 81° |
| 2026-05-04 21:01 | 42.42222 | 163.23183 | 34820 ft | 550 kts | 81° |
| 2026-05-04 21:01 | 42.43403 | 163.33417 | 34812 ft | 551 kts | 80° |
| 2026-05-04 21:02 | 42.44577 | 163.43680 | 34827 ft | 552 kts | 80° |
| 2026-05-04 21:02 | 42.45745 | 163.53974 | 34832 ft | 554 kts | 81° |
| 2026-05-04 21:03 | 42.46906 | 163.64287 | 34831 ft | 554 kts | 81° |
| 2026-05-04 21:03 | 42.48058 | 163.74624 | 34840 ft | 555 kts | 80° |
| 2026-05-04 21:04 | 42.49204 | 163.84975 | 34852 ft | 556 kts | 80° |
| 2026-05-04 21:04 | 42.50339 | 163.95312 | 34858 ft | 556 kts | 80° |
| 2026-05-04 21:05 | 42.51467 | 164.05682 | 34857 ft | 556 kts | 80° |
| 2026-05-04 21:05 | 42.52586 | 164.16058 | 34874 ft | 556 kts | 80° |
| 2026-05-04 21:06 | 42.53694 | 164.26423 | 34876 ft | 555 kts | 80° |
| 2026-05-04 21:06 | 42.54791 | 164.36779 | 34905 ft | 554 kts | 80° |
| 2026-05-04 21:07 | 42.55874 | 164.47099 | 34898 ft | 553 kts | 81° |
| 2026-05-04 21:07 | 42.56948 | 164.57407 | 34905 ft | 551 kts | 81° |
| 2026-05-04 21:08 | 42.58010 | 164.67705 | 34917 ft | 551 kts | 81° |
| 2026-05-04 21:08 | 42.59063 | 164.78002 | 34912 ft | 551 kts | 80° |
| 2026-05-04 21:09 | 42.60108 | 164.88317 | 34936 ft | 552 kts | 80° |
| 2026-05-04 21:09 | 42.61140 | 164.98604 | 34945 ft | 554 kts | 80° |
| 2026-05-04 21:10 | 42.62173 | 165.08987 | 34966 ft | 556 kts | 80° |
| 2026-05-04 21:10 | 42.63197 | 165.19393 | 34953 ft | 557 kts | 80° |
| 2026-05-04 21:11 | 42.64215 | 165.29823 | 34948 ft | 557 kts | 80° |
| 2026-05-04 21:11 | 42.65223 | 165.40253 | 34958 ft | 557 kts | 80° |
| 2026-05-04 21:12 | 42.66221 | 165.50682 | 34966 ft | 556 kts | 80° |
| 2026-05-04 21:12 | 42.67208 | 165.61102 | 34966 ft | 556 kts | 80° |
| 2026-05-04 21:13 | 42.68185 | 165.71523 | 34977 ft | 555 kts | 80° |
| 2026-05-04 21:13 | 42.69151 | 165.81925 | 34990 ft | 555 kts | 80° |
| 2026-05-04 21:14 | 42.70109 | 165.92335 | 34985 ft | 555 kts | 80° |
| 2026-05-04 21:14 | 42.71056 | 166.02740 | 34995 ft | 555 kts | 80° |
| 2026-05-04 21:15 | 42.71994 | 166.13148 | 35005 ft | 555 kts | 80° |
| 2026-05-04 21:15 | 42.72924 | 166.23591 | 35016 ft | 556 kts | 80° |
| 2026-05-04 21:16 | 42.73846 | 166.34039 | 35010 ft | 557 kts | 80° |
| 2026-05-04 21:16 | 42.74759 | 166.44497 | 35019 ft | 557 kts | 80° |
| 2026-05-04 21:17 | 42.75662 | 166.54968 | 35034 ft | 557 kts | 79° |
| 2026-05-04 21:17 | 42.76557 | 166.65450 | 35030 ft | 558 kts | 80° |
| 2026-05-04 21:18 | 42.77295 | 166.74170 | 35030 ft | 558 kts | 80° |
| 2026-05-04 21:18 | 42.78321 | 166.86432 | 35043 ft | 558 kts | 80° |
| 2026-05-04 21:19 | 42.79041 | 166.95159 | 35055 ft | 558 kts | 79° |
| 2026-05-04 21:19 | 42.79900 | 167.05662 | 35046 ft | 558 kts | 79° |
| 2026-05-04 21:20 | 42.80749 | 167.16155 | 35051 ft | 557 kts | 79° |
| 2026-05-04 21:20 | 42.81588 | 167.26651 | 35067 ft | 557 kts | 79° |
| 2026-05-04 21:21 | 42.82418 | 167.37151 | 35050 ft | 557 kts | 79° |
| 2026-05-04 21:21 | 42.83237 | 167.47639 | 35059 ft | 558 kts | 79° |
| 2026-05-04 21:22 | 42.84048 | 167.58145 | 35072 ft | 558 kts | 79° |
| 2026-05-04 21:22 | 42.84849 | 167.68670 | 35073 ft | 558 kts | 79° |
| 2026-05-04 21:23 | 42.85642 | 167.79193 | 35077 ft | 559 kts | 79° |
| 2026-05-04 21:23 | 42.86425 | 167.89730 | 35085 ft | 559 kts | 79° |
| 2026-05-04 21:24 | 42.87199 | 168.00274 | 35100 ft | 559 kts | 79° |
| 2026-05-04 21:24 | 42.87964 | 168.10835 | 35097 ft | 560 kts | 79° |
| 2026-05-04 21:25 | 42.88720 | 168.21402 | 35092 ft | 560 kts | 79° |
| 2026-05-04 21:25 | 42.89466 | 168.31974 | 35097 ft | 560 kts | 79° |
| 2026-05-04 21:26 | 42.90202 | 168.42557 | 35106 ft | 561 kts | 79° |
| 2026-05-04 21:26 | 42.90931 | 168.53151 | 35098 ft | 560 kts | 79° |
| 2026-05-04 21:27 | 42.91648 | 168.63730 | 35107 ft | 560 kts | 79° |
| 2026-05-04 21:27 | 42.92355 | 168.74312 | 35120 ft | 560 kts | 79° |
| 2026-05-04 21:28 | 42.93049 | 168.84826 | 35109 ft | 560 kts | 79° |
| 2026-05-04 21:28 | 42.93741 | 168.95488 | 35111 ft | 561 kts | 79° |
| 2026-05-04 21:29 | 42.94416 | 169.06024 | 35112 ft | 561 kts | 79° |
| 2026-05-04 21:29 | 42.95090 | 169.16700 | 35114 ft | 561 kts | 79° |
| 2026-05-04 21:30 | 42.95745 | 169.27248 | 35117 ft | 561 kts | 79° |
| 2026-05-04 21:30 | 42.96395 | 169.37862 | 35118 ft | 561 kts | 79° |
| 2026-05-04 21:31 | 42.97354 | 169.53821 | 35125 ft | 564 kts | 79° |
| 2026-05-04 21:32 | 42.97983 | 169.64505 | 35128 ft | 565 kts | 80° |
| 2026-05-04 21:32 | 42.98604 | 169.75215 | 35125 ft | 566 kts | 80° |
| 2026-05-04 21:33 | 42.99215 | 169.85953 | 35116 ft | 568 kts | 79° |
| 2026-05-04 21:33 | 42.99818 | 169.96700 | 35123 ft | 568 kts | 79° |
| 2026-05-04 21:34 | 43.00372 | 170.07473 | 35119 ft | 569 kts | 81° |
| 2026-05-04 21:34 | 43.00817 | 170.18287 | 35136 ft | 570 kts | 81° |
| 2026-05-04 21:35 | 43.01238 | 170.29087 | 35126 ft | 569 kts | 81° |
| 2026-05-04 21:35 | 43.01665 | 170.39878 | 35133 ft | 569 kts | 81° |
| 2026-05-04 21:36 | 43.02094 | 170.50663 | 35128 ft | 568 kts | 81° |
| 2026-05-04 21:36 | 43.02515 | 170.61445 | 35144 ft | 569 kts | 81° |
| 2026-05-04 21:37 | 43.02925 | 170.72251 | 35139 ft | 569 kts | 81° |
| 2026-05-04 21:37 | 43.03323 | 170.83067 | 35136 ft | 570 kts | 81° |
| 2026-05-04 21:38 | 43.03711 | 170.93890 | 35161 ft | 571 kts | 81° |
| 2026-05-04 21:38 | 43.04091 | 171.04740 | 35142 ft | 572 kts | 81° |
| 2026-05-04 21:39 | 43.04459 | 171.15601 | 35138 ft | 572 kts | 81° |
| 2026-05-04 21:39 | 43.04818 | 171.26474 | 35142 ft | 572 kts | 81° |
| 2026-05-04 21:40 | 43.05167 | 171.37352 | 35142 ft | 573 kts | 81° |
| 2026-05-04 21:40 | 43.05506 | 171.48234 | 35142 ft | 573 kts | 81° |
| 2026-05-04 21:41 | 43.05834 | 171.59109 | 35141 ft | 573 kts | 81° |
| 2026-05-04 21:41 | 43.06152 | 171.69991 | 35158 ft | 572 kts | 80° |
| 2026-05-04 21:42 | 43.06460 | 171.80865 | 35139 ft | 572 kts | 80° |
| 2026-05-04 21:42 | 43.06756 | 171.91728 | 35140 ft | 571 kts | 80° |
| 2026-05-04 21:43 | 43.07043 | 172.02579 | 35138 ft | 571 kts | 81° |
| 2026-05-04 21:43 | 43.07318 | 172.13429 | 35147 ft | 571 kts | 80° |
| 2026-05-04 21:44 | 43.07584 | 172.24267 | 35135 ft | 570 kts | 80° |
| 2026-05-04 21:44 | 43.07840 | 172.35102 | 35139 ft | 570 kts | 80° |
| 2026-05-04 21:45 | 43.08084 | 172.45933 | 35146 ft | 569 kts | 79° |
| 2026-05-04 21:45 | 43.08319 | 172.56755 | 35133 ft | 569 kts | 79° |
| 2026-05-04 21:46 | 43.08543 | 172.67568 | 35135 ft | 569 kts | 80° |
| 2026-05-04 21:46 | 43.08755 | 172.78304 | 35134 ft | 568 kts | 80° |
| 2026-05-04 21:47 | 43.08959 | 172.89114 | 35137 ft | 569 kts | 80° |
| 2026-05-04 21:47 | 43.09153 | 172.99924 | 35134 ft | 569 kts | 80° |
| 2026-05-04 21:48 | 43.09337 | 173.10755 | 35124 ft | 569 kts | 80° |
| 2026-05-04 21:48 | 43.09510 | 173.21583 | 35134 ft | 570 kts | 80° |
| 2026-05-04 21:49 | 43.09674 | 173.32438 | 35120 ft | 570 kts | 80° |
| 2026-05-04 21:49 | 43.09827 | 173.43279 | 35118 ft | 570 kts | 80° |
| 2026-05-04 21:50 | 43.09969 | 173.54122 | 35151 ft | 570 kts | 79° |
| 2026-05-04 21:50 | 43.10103 | 173.64983 | 35114 ft | 571 kts | 79° |
| 2026-05-04 21:51 | 43.10225 | 173.75852 | 35111 ft | 571 kts | 79° |
| 2026-05-04 21:51 | 43.10337 | 173.86716 | 35110 ft | 571 kts | 79° |
| 2026-05-04 21:52 | 43.10440 | 173.97590 | 35100 ft | 572 kts | 79° |
| 2026-05-04 21:52 | 43.10532 | 174.08476 | 35095 ft | 572 kts | 79° |
| 2026-05-04 21:53 | 43.10614 | 174.19363 | 35093 ft | 573 kts | 79° |
| 2026-05-04 21:53 | 43.10685 | 174.30260 | 35118 ft | 573 kts | 79° |
| 2026-05-04 21:54 | 43.10746 | 174.41187 | 35082 ft | 574 kts | 79° |
| 2026-05-04 21:54 | 43.10797 | 174.52108 | 35075 ft | 574 kts | 79° |
| 2026-05-04 21:55 | 43.10837 | 174.63027 | 35079 ft | 574 kts | 79° |
| 2026-05-04 21:55 | 43.10867 | 174.73964 | 35079 ft | 575 kts | 79° |
| 2026-05-04 21:56 | 43.10886 | 174.84897 | 35065 ft | 575 kts | 79° |
| 2026-05-04 21:56 | 43.10895 | 174.95830 | 35060 ft | 574 kts | 79° |
| 2026-05-04 21:57 | 43.10893 | 175.06764 | 35103 ft | 574 kts | 78° |
| 2026-05-04 21:57 | 43.10880 | 175.17682 | 35052 ft | 573 kts | 78° |
| 2026-05-04 21:58 | 43.10858 | 175.28581 | 35046 ft | 572 kts | 78° |
| 2026-05-04 21:58 | 43.10826 | 175.39438 | 35045 ft | 570 kts | 78° |
| 2026-05-04 21:59 | 43.10783 | 175.50286 | 35036 ft | 570 kts | 78° |
| 2026-05-04 21:59 | 43.10732 | 175.61108 | 35032 ft | 569 kts | 78° |
| 2026-05-04 22:00 | 43.10669 | 175.71935 | 35032 ft | 568 kts | 78° |
| 2026-05-04 22:00 | 43.10597 | 175.82739 | 35081 ft | 568 kts | 78° |
| 2026-05-04 22:01 | 43.10516 | 175.93571 | 35033 ft | 569 kts | 78° |
| 2026-05-04 22:01 | 43.10439 | 176.02565 | 35027 ft | 570 kts | 78° |
| 2026-05-04 22:02 | 43.10337 | 176.13408 | 35021 ft | 570 kts | 78° |
| 2026-05-04 22:02 | 43.10204 | 176.26093 | 35035 ft | 571 kts | 78° |
| 2026-05-04 22:03 | 43.10102 | 176.35124 | 35021 ft | 571 kts | 78° |
| 2026-05-04 22:03 | 43.09968 | 176.46001 | 35015 ft | 572 kts | 78° |
| 2026-05-04 22:04 | 43.09824 | 176.56871 | 35005 ft | 571 kts | 78° |
| 2026-05-04 22:04 | 43.09670 | 176.67746 | 35000 ft | 571 kts | 78° |
| 2026-05-04 22:05 | 43.09506 | 176.78612 | 34998 ft | 571 kts | 78° |
| 2026-05-04 22:05 | 43.09332 | 176.89484 | 34992 ft | 571 kts | 78° |
| 2026-05-04 22:06 | 43.09148 | 177.00354 | 35016 ft | 572 kts | 78° |
| 2026-05-04 22:06 | 43.08954 | 177.11252 | 34989 ft | 573 kts | 78° |
| 2026-05-04 22:07 | 43.08747 | 177.22135 | 34985 ft | 573 kts | 78° |
| 2026-05-04 22:07 | 43.08530 | 177.33032 | 35035 ft | 573 kts | 78° |
| 2026-05-04 22:08 | 43.08304 | 177.43938 | 34975 ft | 574 kts | 78° |
| 2026-05-04 22:08 | 43.08069 | 177.54763 | 34973 ft | 573 kts | 78° |
| 2026-05-04 22:09 | 43.07819 | 177.65716 | 34962 ft | 572 kts | 78° |
| 2026-05-04 22:09 | 43.07562 | 177.76587 | 34985 ft | 572 kts | 78° |
| 2026-05-04 22:10 | 43.07298 | 177.87399 | 34958 ft | 572 kts | 78° |
| 2026-05-04 22:10 | 43.07018 | 177.98343 | 34954 ft | 572 kts | 78° |
| 2026-05-04 22:11 | 43.06730 | 178.09211 | 35028 ft | 572 kts | 78° |
| 2026-05-04 22:11 | 43.06436 | 178.20039 | 34948 ft | 574 kts | 78° |
| 2026-05-04 22:12 | 43.06125 | 178.31023 | 34952 ft | 575 kts | 78° |
| 2026-05-04 22:12 | 43.05805 | 178.41888 | 34941 ft | 576 kts | 78° |
| 2026-05-04 22:13 | 43.05474 | 178.52831 | 34980 ft | 577 kts | 77° |
| 2026-05-04 22:13 | 43.05133 | 178.63813 | 34936 ft | 579 kts | 78° |
| 2026-05-04 22:14 | 43.04777 | 178.74823 | 34933 ft | 580 kts | 78° |
| 2026-05-04 22:14 | 43.04410 | 178.85850 | 35012 ft | 581 kts | 77° |
| 2026-05-04 22:15 | 43.04034 | 178.96896 | 34935 ft | 583 kts | 78° |
| 2026-05-04 22:15 | 43.03645 | 179.07973 | 34928 ft | 583 kts | 78° |
| 2026-05-04 22:16 | 43.03244 | 179.19040 | 34917 ft | 583 kts | 78° |
| 2026-05-04 22:16 | 43.02834 | 179.30099 | 34930 ft | 583 kts | 78° |
| 2026-05-04 22:17 | 43.02413 | 179.41147 | 34891 ft | 582 kts | 78° |
| 2026-05-04 22:17 | 43.01983 | 179.52167 | 34908 ft | 580 kts | 78° |
| 2026-05-04 22:18 | 43.01545 | 179.63172 | 34951 ft | 580 kts | 78° |
| 2026-05-04 22:18 | 43.01097 | 179.74183 | 34910 ft | 580 kts | 79° |
| 2026-05-04 22:19 | 43.00635 | 179.85184 | 34908 ft | 580 kts | 79° |
| 2026-05-04 22:19 | 43.00166 | 179.96180 | 34902 ft | 579 kts | 79° |
| 2026-05-04 22:19 | 43.00021 | -179.98364 | 35031 ft | 571 kts | 77° |
| 2026-05-04 22:20 | 43.00172 | -179.92984 | 34971 ft | 564 kts | 74° |
| 2026-05-04 22:20 | 43.00676 | -179.82306 | 34896 ft | 563 kts | 73° |
| 2026-05-04 22:21 | 43.01186 | -179.71624 | 34898 ft | 563 kts | 74° |
| 2026-05-04 22:21 | 43.01642 | -179.60959 | 34889 ft | 563 kts | 74° |
| 2026-05-04 22:22 | 43.02064 | -179.50281 | 34888 ft | 562 kts | 74° |
| 2026-05-04 22:22 | 43.02472 | -179.39620 | 34894 ft | 562 kts | 75° |
| 2026-05-04 22:23 | 43.02873 | -179.29018 | 34897 ft | 563 kts | 75° |
| 2026-05-04 22:23 | 43.03269 | -179.18332 | 34921 ft | 563 kts | 76° |
| 2026-05-04 22:24 | 43.03654 | -179.07633 | 34875 ft | 563 kts | 76° |
| 2026-05-04 22:24 | 43.04027 | -178.96952 | 34868 ft | 562 kts | 77° |
| 2026-05-04 22:25 | 43.04390 | -178.86294 | 34867 ft | 561 kts | 77° |
| 2026-05-04 22:25 | 43.04748 | -178.75579 | 34864 ft | 560 kts | 78° |
| 2026-05-04 22:26 | 43.05088 | -178.65019 | 34865 ft | 559 kts | 78° |
| 2026-05-04 22:26 | 43.05421 | -178.54400 | 34860 ft | 559 kts | 78° |
| 2026-05-04 22:27 | 43.05747 | -178.43709 | 34899 ft | 559 kts | 79° |
| 2026-05-04 22:27 | 43.06059 | -178.33165 | 34859 ft | 559 kts | 79° |
| 2026-05-04 22:28 | 43.06363 | -178.22497 | 34854 ft | 558 kts | 79° |
| 2026-05-04 22:28 | 43.06655 | -178.11907 | 34857 ft | 557 kts | 79° |
| 2026-05-04 22:29 | 43.06938 | -178.01384 | 34851 ft | 557 kts | 80° |
| 2026-05-04 22:29 | 43.07210 | -177.90820 | 34840 ft | 556 kts | 80° |
| 2026-05-04 22:30 | 43.07472 | -177.80253 | 34846 ft | 555 kts | 80° |
| 2026-05-04 22:30 | 43.07725 | -177.69711 | 34888 ft | 555 kts | 81° |
| 2026-05-04 22:31 | 43.07969 | -177.59158 | 34851 ft | 555 kts | 81° |
| 2026-05-04 22:31 | 43.08202 | -177.48612 | 34837 ft | 554 kts | 81° |
| 2026-05-04 22:32 | 43.08425 | -177.38080 | 34837 ft | 554 kts | 81° |
| 2026-05-04 22:32 | 43.08639 | -177.27568 | 34842 ft | 553 kts | 82° |
| 2026-05-04 22:33 | 43.08843 | -177.17040 | 34831 ft | 553 kts | 82° |
| 2026-05-04 22:33 | 43.09036 | -177.06543 | 34832 ft | 552 kts | 82° |
| 2026-05-04 22:34 | 43.09220 | -176.96032 | 34836 ft | 552 kts | 82° |
| 2026-05-04 22:34 | 43.09396 | -176.85524 | 34835 ft | 553 kts | 83° |
| 2026-05-04 22:35 | 43.09560 | -176.75014 | 34823 ft | 552 kts | 83° |
| 2026-05-04 22:35 | 43.09715 | -176.64521 | 34825 ft | 551 kts | 83° |
| 2026-05-04 22:36 | 43.09861 | -176.54025 | 34848 ft | 551 kts | 84° |
| 2026-05-04 22:36 | 43.09997 | -176.43548 | 34832 ft | 551 kts | 84° |
| 2026-05-04 22:37 | 43.10123 | -176.33075 | 34819 ft | 550 kts | 84° |
| 2026-05-04 22:37 | 43.10239 | -176.22614 | 34823 ft | 550 kts | 84° |
| 2026-05-04 22:38 | 43.10346 | -176.12166 | 34822 ft | 549 kts | 84° |
| 2026-05-04 22:38 | 43.10443 | -176.01730 | 34818 ft | 548 kts | 84° |
| 2026-05-04 22:39 | 43.10530 | -175.91368 | 34817 ft | 547 kts | 84° |
| 2026-05-04 22:39 | 43.10608 | -175.80958 | 34816 ft | 547 kts | 84° |
| 2026-05-04 22:40 | 43.10677 | -175.70559 | 34814 ft | 547 kts | 84° |
| 2026-05-04 22:40 | 43.10737 | -175.60155 | 34808 ft | 547 kts | 84° |
| 2026-05-04 22:41 | 43.10787 | -175.49741 | 34809 ft | 547 kts | 84° |
| 2026-05-04 22:41 | 43.10827 | -175.39332 | 34828 ft | 547 kts | 85° |
| 2026-05-04 22:42 | 43.10858 | -175.28929 | 34809 ft | 547 kts | 85° |
| 2026-05-04 22:42 | 43.10879 | -175.18516 | 34802 ft | 547 kts | 85° |
| 2026-05-04 22:43 | 43.10891 | -175.08117 | 34799 ft | 546 kts | 85° |
| 2026-05-04 22:43 | 43.10894 | -174.97723 | 34813 ft | 546 kts | 86° |
| 2026-05-04 22:44 | 43.10887 | -174.87345 | 34795 ft | 545 kts | 86° |
| 2026-05-04 22:44 | 43.10870 | -174.76987 | 34795 ft | 544 kts | 86° |
| 2026-05-04 22:45 | 43.10845 | -174.66647 | 34811 ft | 543 kts | 86° |
| 2026-05-04 22:45 | 43.10790 | -174.51149 | 34791 ft | 542 kts | 87° |
| 2026-05-04 22:46 | 43.10742 | -174.40908 | 34793 ft | 542 kts | 87° |
| 2026-05-04 22:46 | 43.10685 | -174.30608 | 34794 ft | 541 kts | 87° |
| 2026-05-04 22:47 | 43.10618 | -174.20314 | 34796 ft | 541 kts | 87° |
| 2026-05-04 22:47 | 43.10542 | -174.10015 | 34793 ft | 541 kts | 88° |
| 2026-05-04 22:48 | 43.10471 | -174.01396 | 34786 ft | 541 kts | 88° |
| 2026-05-04 22:48 | 43.10378 | -173.91111 | 34797 ft | 541 kts | 88° |
| 2026-05-04 22:49 | 43.10277 | -173.80884 | 34788 ft | 541 kts | 88° |
| 2026-05-04 22:49 | 43.10166 | -173.70597 | 34780 ft | 541 kts | 88° |
| 2026-05-04 22:50 | 43.10045 | -173.60319 | 34779 ft | 540 kts | 88° |
| 2026-05-04 22:50 | 43.09915 | -173.50040 | 34790 ft | 540 kts | 89° |
| 2026-05-04 22:51 | 43.09777 | -173.39777 | 34785 ft | 540 kts | 89° |
| 2026-05-04 22:51 | 43.09629 | -173.29519 | 34783 ft | 539 kts | 89° |
| 2026-05-04 22:52 | 43.09472 | -173.19254 | 34773 ft | 539 kts | 89° |
| 2026-05-04 22:52 | 43.09306 | -173.09008 | 34780 ft | 538 kts | 89° |
| 2026-05-04 22:53 | 43.09131 | -172.98772 | 34775 ft | 538 kts | 89° |
| 2026-05-04 22:53 | 43.08947 | -172.88540 | 34777 ft | 537 kts | 89° |
| 2026-05-04 22:54 | 43.08755 | -172.78328 | 34775 ft | 537 kts | 89° |
| 2026-05-04 22:54 | 43.08553 | -172.68119 | 34775 ft | 537 kts | 90° |
| 2026-05-04 22:55 | 43.08342 | -172.57913 | 34772 ft | 536 kts | 90° |
| 2026-05-04 22:55 | 43.08123 | -172.47732 | 34772 ft | 536 kts | 90° |
| 2026-05-04 22:56 | 43.07895 | -172.37548 | 34781 ft | 535 kts | 90° |
| 2026-05-04 22:56 | 43.07657 | -172.27358 | 34775 ft | 536 kts | 90° |
| 2026-05-04 22:57 | 43.07411 | -172.17177 | 34766 ft | 536 kts | 90° |
| 2026-05-04 22:57 | 43.07155 | -172.06990 | 34770 ft | 535 kts | 90° |
| 2026-05-04 22:58 | 43.06891 | -171.96828 | 34773 ft | 535 kts | 90° |
| 2026-05-04 22:58 | 43.06618 | -171.86663 | 34776 ft | 535 kts | 91° |
| 2026-05-04 22:59 | 43.06338 | -171.76572 | 34767 ft | 535 kts | 91° |
| 2026-05-04 22:59 | 43.06047 | -171.66412 | 34772 ft | 535 kts | 91° |
| 2026-05-04 23:00 | 43.05748 | -171.56256 | 34771 ft | 534 kts | 91° |
| 2026-05-04 23:00 | 43.05439 | -171.46113 | 34772 ft | 534 kts | 91° |
| 2026-05-04 23:01 | 43.05122 | -171.35963 | 34773 ft | 534 kts | 91° |
| 2026-05-04 23:01 | 43.04795 | -171.25826 | 34766 ft | 534 kts | 92° |
| 2026-05-04 23:02 | 43.04460 | -171.15688 | 34773 ft | 533 kts | 92° |
| 2026-05-04 23:02 | 43.04117 | -171.05571 | 34772 ft | 533 kts | 92° |
| 2026-05-04 23:03 | 43.03764 | -170.95449 | 34772 ft | 533 kts | 92° |
| 2026-05-04 23:03 | 43.03403 | -170.85336 | 34778 ft | 532 kts | 92° |
| 2026-05-04 23:04 | 43.03033 | -170.75237 | 34771 ft | 532 kts | 92° |
| 2026-05-04 23:04 | 43.02655 | -170.65151 | 34772 ft | 531 kts | 92° |
| 2026-05-04 23:05 | 43.02269 | -170.55075 | 34773 ft | 531 kts | 92° |
| 2026-05-04 23:05 | 43.01873 | -170.45010 | 34770 ft | 530 kts | 93° |
| 2026-05-04 23:06 | 43.01470 | -170.34954 | 34773 ft | 530 kts | 93° |
| 2026-05-04 23:06 | 43.01058 | -170.24897 | 34774 ft | 530 kts | 93° |
| 2026-05-04 23:07 | 43.00641 | -170.14908 | 34793 ft | 530 kts | 94° |
| 2026-05-04 23:07 | 43.00231 | -170.04862 | 34778 ft | 529 kts | 91° |
| 2026-05-04 23:08 | 43.00652 | -169.94857 | 34777 ft | 528 kts | 80° |
| 2026-05-04 23:08 | 43.02070 | -169.85028 | 34782 ft | 527 kts | 77° |
| 2026-05-04 23:09 | 43.03549 | -169.75227 | 34776 ft | 526 kts | 78° |
| 2026-05-04 23:09 | 43.04983 | -169.65419 | 34781 ft | 526 kts | 78° |
| 2026-05-04 23:10 | 43.06384 | -169.55589 | 34786 ft | 527 kts | 78° |
| 2026-05-04 23:10 | 43.07767 | -169.45760 | 34786 ft | 527 kts | 78° |
| 2026-05-04 23:11 | 43.09147 | -169.35915 | 34780 ft | 527 kts | 79° |
| 2026-05-04 23:11 | 43.10519 | -169.26057 | 34788 ft | 528 kts | 79° |
| 2026-05-04 23:12 | 43.11886 | -169.16185 | 34813 ft | 528 kts | 79° |
| 2026-05-04 23:12 | 43.13246 | -169.06298 | 34792 ft | 528 kts | 79° |
| 2026-05-04 23:13 | 43.14596 | -168.96418 | 34781 ft | 528 kts | 79° |
| 2026-05-04 23:13 | 43.15927 | -168.86606 | 34786 ft | 527 kts | 79° |
| 2026-05-04 23:14 | 43.17256 | -168.76742 | 34789 ft | 527 kts | 79° |
| 2026-05-04 23:14 | 43.18576 | -168.66882 | 34781 ft | 526 kts | 80° |
| 2026-05-04 23:15 | 43.19888 | -168.57011 | 34791 ft | 526 kts | 80° |
| 2026-05-04 23:15 | 43.21198 | -168.47082 | 34792 ft | 526 kts | 80° |
| 2026-05-04 23:16 | 43.22485 | -168.37270 | 34792 ft | 526 kts | 80° |
| 2026-05-04 23:16 | 43.23778 | -168.27333 | 34801 ft | 526 kts | 80° |
| 2026-05-04 23:17 | 43.25048 | -168.17512 | 34792 ft | 526 kts | 80° |
| 2026-05-04 23:17 | 43.26315 | -168.07645 | 34787 ft | 525 kts | 81° |
| 2026-05-04 23:18 | 43.27571 | -167.97786 | 34792 ft | 524 kts | 81° |
| 2026-05-04 23:18 | 43.28818 | -167.87934 | 34781 ft | 524 kts | 81° |
| 2026-05-04 23:19 | 43.30055 | -167.78085 | 34788 ft | 524 kts | 81° |
| 2026-05-04 23:19 | 43.31284 | -167.68227 | 34787 ft | 524 kts | 81° |
| 2026-05-04 23:20 | 43.32507 | -167.58347 | 34766 ft | 525 kts | 81° |
| 2026-05-04 23:20 | 43.33722 | -167.48462 | 34786 ft | 525 kts | 81° |
| 2026-05-04 23:21 | 43.34929 | -167.38572 | 34787 ft | 525 kts | 82° |
| 2026-05-04 23:21 | 43.36127 | -167.28677 | 34776 ft | 525 kts | 82° |
| 2026-05-04 23:22 | 43.37316 | -167.18775 | 34773 ft | 525 kts | 82° |
| 2026-05-04 23:22 | 43.38495 | -167.08888 | 34781 ft | 524 kts | 82° |
| 2026-05-04 23:23 | 43.39665 | -166.99009 | 34785 ft | 523 kts | 82° |
| 2026-05-04 23:23 | 43.40825 | -166.89132 | 34785 ft | 523 kts | 82° |
| 2026-05-04 23:24 | 43.41975 | -166.79268 | 34774 ft | 522 kts | 82° |
| 2026-05-04 23:24 | 43.43117 | -166.69390 | 34786 ft | 522 kts | 83° |
| 2026-05-04 23:25 | 43.44249 | -166.59515 | 34808 ft | 523 kts | 83° |
| 2026-05-04 23:25 | 43.45374 | -166.49631 | 34789 ft | 523 kts | 83° |
| 2026-05-04 23:26 | 43.46491 | -166.39744 | 34794 ft | 522 kts | 83° |
| 2026-05-04 23:26 | 43.47598 | -166.29857 | 34806 ft | 522 kts | 83° |
| 2026-05-04 23:27 | 43.48696 | -166.19978 | 34814 ft | 522 kts | 83° |
| 2026-05-04 23:27 | 43.49786 | -166.10090 | 34793 ft | 522 kts | 83° |
| 2026-05-04 23:28 | 43.50867 | -166.00202 | 34818 ft | 523 kts | 83° |
| 2026-05-04 23:28 | 43.51941 | -165.90296 | 34829 ft | 523 kts | 83° |
| 2026-05-04 23:29 | 43.53000 | -165.80443 | 34825 ft | 524 kts | 83° |
| 2026-05-04 23:29 | 43.54060 | -165.70503 | 34838 ft | 524 kts | 83° |
| 2026-05-04 23:30 | 43.55109 | -165.60575 | 34842 ft | 523 kts | 83° |
| 2026-05-04 23:30 | 43.56148 | -165.50662 | 34843 ft | 522 kts | 83° |
| 2026-05-04 23:31 | 43.57178 | -165.40755 | 34826 ft | 522 kts | 83° |
| 2026-05-04 23:31 | 43.58197 | -165.30858 | 34859 ft | 521 kts | 83° |
| 2026-05-04 23:32 | 43.59209 | -165.20953 | 34878 ft | 521 kts | 84° |
| 2026-05-04 23:32 | 43.60212 | -165.11039 | 34871 ft | 522 kts | 84° |
| 2026-05-04 23:33 | 43.61207 | -165.01122 | 34875 ft | 522 kts | 84° |
| 2026-05-04 23:33 | 43.62193 | -164.91206 | 34898 ft | 521 kts | 84° |
| 2026-05-04 23:34 | 43.63169 | -164.81294 | 34885 ft | 521 kts | 84° |
| 2026-05-04 23:34 | 43.63974 | -164.73062 | 34893 ft | 520 kts | 84° |
| 2026-05-04 23:35 | 43.65094 | -164.61494 | 34903 ft | 520 kts | 84° |
| 2026-05-04 23:35 | 43.65881 | -164.53279 | 34896 ft | 519 kts | 84° |
| 2026-05-04 23:36 | 43.66821 | -164.43397 | 34914 ft | 519 kts | 84° |
| 2026-05-04 23:36 | 43.67752 | -164.33520 | 34891 ft | 518 kts | 84° |
| 2026-05-04 23:37 | 43.68672 | -164.23656 | 34911 ft | 518 kts | 84° |
| 2026-05-04 23:37 | 43.69584 | -164.13794 | 34927 ft | 518 kts | 84° |
| 2026-05-04 23:38 | 43.70487 | -164.03929 | 34940 ft | 517 kts | 84° |
| 2026-05-04 23:38 | 43.71380 | -163.94081 | 34929 ft | 515 kts | 84° |
| 2026-05-04 23:39 | 43.72260 | -163.84270 | 34959 ft | 514 kts | 84° |
| 2026-05-04 23:39 | 43.73132 | -163.74472 | 34960 ft | 513 kts | 84° |
| 2026-05-04 23:40 | 43.73993 | -163.64676 | 34935 ft | 513 kts | 84° |
| 2026-05-04 23:40 | 43.74845 | -163.54896 | 34955 ft | 512 kts | 84° |
| 2026-05-04 23:41 | 43.75688 | -163.45135 | 34957 ft | 511 kts | 85° |
| 2026-05-04 23:41 | 43.76521 | -163.35372 | 34977 ft | 511 kts | 85° |
| 2026-05-04 23:42 | 43.77346 | -163.25605 | 34975 ft | 511 kts | 85° |
| 2026-05-04 23:42 | 43.78164 | -163.15834 | 34984 ft | 511 kts | 85° |
| 2026-05-04 23:43 | 43.78973 | -163.06058 | 34983 ft | 511 kts | 85° |
| 2026-05-04 23:43 | 43.79768 | -162.96339 | 34990 ft | 511 kts | 85° |
| 2026-05-04 23:44 | 43.80560 | -162.86564 | 34975 ft | 511 kts | 85° |
| 2026-05-04 23:44 | 43.81345 | -162.76775 | 34994 ft | 511 kts | 85° |
| 2026-05-04 23:45 | 43.82121 | -162.66993 | 34995 ft | 511 kts | 85° |
| 2026-05-04 23:45 | 43.82887 | -162.57220 | 35005 ft | 511 kts | 85° |
| 2026-05-04 23:46 | 43.83645 | -162.47433 | 34983 ft | 511 kts | 85° |
| 2026-05-04 23:46 | 43.84395 | -162.37660 | 35006 ft | 510 kts | 85° |
| 2026-05-04 23:47 | 43.85135 | -162.27882 | 35013 ft | 510 kts | 85° |
| 2026-05-04 23:47 | 43.85867 | -162.18118 | 35020 ft | 510 kts | 85° |
| 2026-05-04 23:48 | 43.86590 | -162.08350 | 35021 ft | 510 kts | 86° |
| 2026-05-04 23:48 | 43.87306 | -161.98562 | 35025 ft | 511 kts | 86° |
| 2026-05-04 23:49 | 43.88014 | -161.88775 | 35033 ft | 510 kts | 86° |
| 2026-05-04 23:49 | 43.88713 | -161.78982 | 35035 ft | 510 kts | 86° |
| 2026-05-04 23:50 | 43.89403 | -161.69210 | 35042 ft | 510 kts | 86° |
| 2026-05-04 23:50 | 43.90084 | -161.59429 | 35038 ft | 509 kts | 86° |
| 2026-05-04 23:51 | 43.90757 | -161.49656 | 35052 ft | 509 kts | 86° |
| 2026-05-04 23:51 | 43.91421 | -161.39887 | 35050 ft | 509 kts | 86° |
| 2026-05-04 23:52 | 43.92076 | -161.30125 | 35049 ft | 508 kts | 86° |
| 2026-05-04 23:52 | 43.92722 | -161.20363 | 35063 ft | 508 kts | 86° |
| 2026-05-04 23:53 | 43.93361 | -161.10598 | 35058 ft | 508 kts | 86° |
| 2026-05-04 23:53 | 43.93990 | -161.00832 | 35061 ft | 508 kts | 86° |
| 2026-05-04 23:54 | 43.94608 | -160.91122 | 35055 ft | 508 kts | 86° |
| 2026-05-04 23:54 | 43.95226 | -160.81284 | 35065 ft | 508 kts | 87° |
| 2026-05-04 23:55 | 43.95826 | -160.71589 | 35076 ft | 508 kts | 87° |
| 2026-05-04 23:56 | 43.96717 | -160.56939 | 35073 ft | 507 kts | 87° |
| 2026-05-04 23:56 | 43.97300 | -160.47180 | 35070 ft | 507 kts | 87° |
| 2026-05-04 23:57 | 43.97874 | -160.37427 | 35081 ft | 507 kts | 87° |
| 2026-05-04 23:57 | 43.98440 | -160.27673 | 35085 ft | 507 kts | 87° |
| 2026-05-04 23:58 | 43.98998 | -160.17902 | 35086 ft | 508 kts | 87° |
| 2026-05-04 23:58 | 43.99549 | -160.08129 | 35094 ft | 508 kts | 87° |
| 2026-05-04 23:59 | 44.00090 | -159.98334 | 35092 ft | 508 kts | 88° |
| 2026-05-04 23:59 | 44.00534 | -159.88487 | 35460 ft | 512 kts | 89° |
| 2026-05-04 23:59 | 44.00734 | -159.83542 | 35811 ft | 511 kts | 89° |
| 2026-05-05 00:00 | 44.00929 | -159.78624 | 36154 ft | 510 kts | 89° |
| 2026-05-05 00:00 | 44.00995 | -159.76954 | 36286 ft | 510 kts | 89° |
| 2026-05-05 00:00 | 44.01322 | -159.68782 | 36768 ft | 510 kts | 89° |
| 2026-05-05 00:00 | 44.01520 | -159.63859 | 36995 ft | 512 kts | 89° |
| 2026-05-05 00:01 | 44.01718 | -159.58910 | 37051 ft | 516 kts | 89° |
| 2026-05-05 00:01 | 44.02114 | -159.48968 | 37096 ft | 514 kts | 89° |
| 2026-05-05 00:02 | 44.02499 | -159.39114 | 37101 ft | 508 kts | 89° |
| 2026-05-05 00:02 | 44.02871 | -159.29318 | 37113 ft | 507 kts | 89° |
| 2026-05-05 00:03 | 44.03233 | -159.19537 | 37104 ft | 507 kts | 89° |
| 2026-05-05 00:03 | 44.03587 | -159.09749 | 37124 ft | 508 kts | 89° |
| 2026-05-05 00:04 | 44.03934 | -158.99935 | 37117 ft | 509 kts | 89° |
| 2026-05-05 00:04 | 44.04273 | -158.90099 | 37126 ft | 510 kts | 89° |
| 2026-05-05 00:05 | 44.04605 | -158.80236 | 37104 ft | 511 kts | 89° |
| 2026-05-05 00:05 | 44.04929 | -158.70361 | 37122 ft | 512 kts | 89° |
| 2026-05-05 00:06 | 44.05242 | -158.60534 | 37130 ft | 512 kts | 89° |
| 2026-05-05 00:06 | 44.05550 | -158.50643 | 37133 ft | 512 kts | 89° |
| 2026-05-05 00:07 | 44.05848 | -158.40748 | 37117 ft | 512 kts | 90° |
| 2026-05-05 00:07 | 44.06138 | -158.30864 | 37127 ft | 511 kts | 90° |
| 2026-05-05 00:08 | 44.06419 | -158.20994 | 37141 ft | 511 kts | 90° |
| 2026-05-05 00:08 | 44.06693 | -158.11071 | 37141 ft | 510 kts | 90° |
| 2026-05-05 00:09 | 44.06954 | -158.01298 | 37121 ft | 509 kts | 90° |
| 2026-05-05 00:09 | 44.07209 | -157.91475 | 37138 ft | 508 kts | 90° |
| 2026-05-05 00:10 | 44.07454 | -157.81661 | 37141 ft | 508 kts | 90° |
| 2026-05-05 00:10 | 44.07691 | -157.71839 | 37151 ft | 508 kts | 90° |
| 2026-05-05 00:11 | 44.07920 | -157.62027 | 37151 ft | 508 kts | 90° |
| 2026-05-05 00:11 | 44.08140 | -157.52201 | 37155 ft | 508 kts | 91° |
| 2026-05-05 00:12 | 44.08352 | -157.42368 | 37150 ft | 509 kts | 91° |
| 2026-05-05 00:12 | 44.08556 | -157.32544 | 37150 ft | 509 kts | 91° |
| 2026-05-05 00:13 | 44.08751 | -157.22701 | 37157 ft | 509 kts | 91° |
| 2026-05-05 00:13 | 44.08938 | -157.12873 | 37148 ft | 508 kts | 91° |
| 2026-05-05 00:14 | 44.09117 | -157.03044 | 37155 ft | 508 kts | 91° |
| 2026-05-05 00:14 | 44.09286 | -156.93220 | 37155 ft | 508 kts | 91° |
| 2026-05-05 00:15 | 44.09448 | -156.83401 | 37154 ft | 508 kts | 91° |
| 2026-05-05 00:15 | 44.09601 | -156.73579 | 37154 ft | 508 kts | 91° |
| 2026-05-05 00:16 | 44.09745 | -156.63759 | 37160 ft | 508 kts | 91° |
| 2026-05-05 00:16 | 44.09881 | -156.53936 | 37160 ft | 508 kts | 91° |
| 2026-05-05 00:17 | 44.10009 | -156.44108 | 37160 ft | 508 kts | 92° |
| 2026-05-05 00:17 | 44.10128 | -156.34290 | 37157 ft | 507 kts | 92° |
| 2026-05-05 00:18 | 44.10239 | -156.24481 | 37166 ft | 507 kts | 92° |
| 2026-05-05 00:18 | 44.10341 | -156.14686 | 37169 ft | 507 kts | 92° |
| 2026-05-05 00:19 | 44.10435 | -156.04875 | 37175 ft | 507 kts | 92° |
| 2026-05-05 00:19 | 44.10520 | -155.95073 | 37159 ft | 507 kts | 92° |
| 2026-05-05 00:20 | 44.10598 | -155.85269 | 37178 ft | 507 kts | 92° |
| 2026-05-05 00:20 | 44.10655 | -155.77113 | 37177 ft | 507 kts | 92° |
| 2026-05-05 00:21 | 44.10727 | -155.65643 | 37184 ft | 507 kts | 92° |
| 2026-05-05 00:21 | 44.10771 | -155.57491 | 37182 ft | 507 kts | 93° |
| 2026-05-05 00:22 | 44.10816 | -155.47679 | 37179 ft | 507 kts | 93° |
| 2026-05-05 00:22 | 44.10852 | -155.37879 | 37182 ft | 507 kts | 93° |
| 2026-05-05 00:23 | 44.10880 | -155.28067 | 37183 ft | 507 kts | 93° |
| 2026-05-05 00:23 | 44.10900 | -155.18263 | 37188 ft | 507 kts | 93° |
| 2026-05-05 00:24 | 44.10912 | -155.08459 | 37184 ft | 506 kts | 93° |
| 2026-05-05 00:24 | 44.10915 | -154.98657 | 37192 ft | 507 kts | 93° |
| 2026-05-05 00:25 | 44.10909 | -154.88857 | 37199 ft | 507 kts | 93° |
| 2026-05-05 00:25 | 44.10895 | -154.79051 | 37195 ft | 507 kts | 94° |
| 2026-05-05 00:26 | 44.10873 | -154.69235 | 37186 ft | 507 kts | 94° |
| 2026-05-05 00:26 | 44.10843 | -154.59433 | 37198 ft | 507 kts | 94° |
| 2026-05-05 00:27 | 44.10804 | -154.49693 | 37198 ft | 507 kts | 94° |
| 2026-05-05 00:27 | 44.10757 | -154.39893 | 37205 ft | 507 kts | 94° |
| 2026-05-05 00:28 | 44.10702 | -154.30101 | 37193 ft | 506 kts | 94° |
| 2026-05-05 00:28 | 44.10638 | -154.20314 | 37203 ft | 506 kts | 94° |
| 2026-05-05 00:29 | 44.10565 | -154.10526 | 37205 ft | 506 kts | 94° |
| 2026-05-05 00:29 | 44.10484 | -154.00662 | 37210 ft | 506 kts | 94° |
| 2026-05-05 00:30 | 44.10396 | -153.90939 | 37191 ft | 506 kts | 94° |
| 2026-05-05 00:30 | 44.10299 | -153.81157 | 37207 ft | 506 kts | 95° |
| 2026-05-05 00:31 | 44.10193 | -153.71367 | 37212 ft | 506 kts | 95° |
| 2026-05-05 00:31 | 44.10079 | -153.61578 | 37210 ft | 506 kts | 95° |
| 2026-05-05 00:32 | 44.09956 | -153.51777 | 37187 ft | 506 kts | 95° |
| 2026-05-05 00:32 | 44.09826 | -153.41986 | 37218 ft | 506 kts | 95° |
| 2026-05-05 00:33 | 44.09687 | -153.32211 | 37221 ft | 506 kts | 95° |
| 2026-05-05 00:33 | 44.09539 | -153.22416 | 37224 ft | 506 kts | 95° |
| 2026-05-05 00:34 | 44.09383 | -153.12637 | 37220 ft | 506 kts | 95° |
| 2026-05-05 00:34 | 44.09219 | -153.02859 | 37227 ft | 505 kts | 95° |
| 2026-05-05 00:35 | 44.09047 | -152.93088 | 37220 ft | 505 kts | 95° |
| 2026-05-05 00:35 | 44.08866 | -152.83319 | 37220 ft | 505 kts | 95° |
| 2026-05-05 00:36 | 44.08678 | -152.73559 | 37228 ft | 505 kts | 95° |
| 2026-05-05 00:36 | 44.08481 | -152.63801 | 37222 ft | 505 kts | 96° |
| 2026-05-05 00:37 | 44.08275 | -152.54046 | 37230 ft | 504 kts | 96° |
| 2026-05-05 00:37 | 44.08062 | -152.44300 | 37226 ft | 504 kts | 96° |
| 2026-05-05 00:38 | 44.07840 | -152.34544 | 37224 ft | 504 kts | 96° |
| 2026-05-05 00:38 | 44.07610 | -152.24803 | 37224 ft | 504 kts | 96° |
| 2026-05-05 00:39 | 44.07373 | -152.15074 | 37230 ft | 504 kts | 96° |
| 2026-05-05 00:39 | 44.07126 | -152.05345 | 37232 ft | 504 kts | 96° |
| 2026-05-05 00:40 | 44.06872 | -151.95612 | 37229 ft | 504 kts | 96° |
| 2026-05-05 00:40 | 44.06609 | -151.85884 | 37209 ft | 503 kts | 96° |
| 2026-05-05 00:41 | 44.06340 | -151.76226 | 37234 ft | 503 kts | 96° |
| 2026-05-05 00:41 | 44.06060 | -151.66456 | 37239 ft | 503 kts | 96° |
| 2026-05-05 00:42 | 44.05774 | -151.56802 | 37237 ft | 503 kts | 96° |
| 2026-05-05 00:42 | 44.05480 | -151.47100 | 37218 ft | 503 kts | 96° |
| 2026-05-05 00:43 | 44.05176 | -151.37386 | 37236 ft | 502 kts | 97° |
| 2026-05-05 00:43 | 44.04865 | -151.27695 | 37248 ft | 502 kts | 97° |
| 2026-05-05 00:44 | 44.04546 | -151.17993 | 37239 ft | 502 kts | 97° |
| 2026-05-05 00:44 | 44.04218 | -151.08297 | 37235 ft | 502 kts | 97° |
| 2026-05-05 00:45 | 44.03883 | -150.98615 | 37236 ft | 501 kts | 97° |
| 2026-05-05 00:45 | 44.03540 | -150.88943 | 37243 ft | 501 kts | 97° |
| 2026-05-05 00:46 | 44.03188 | -150.79273 | 37242 ft | 501 kts | 97° |
| 2026-05-05 00:46 | 44.02828 | -150.69608 | 37245 ft | 501 kts | 97° |
| 2026-05-05 00:47 | 44.02461 | -150.59944 | 37248 ft | 501 kts | 97° |
| 2026-05-05 00:47 | 44.02086 | -150.50294 | 37248 ft | 501 kts | 97° |
| 2026-05-05 00:48 | 44.01702 | -150.40629 | 37250 ft | 501 kts | 97° |
| 2026-05-05 00:48 | 44.01310 | -150.30972 | 37248 ft | 501 kts | 97° |
| 2026-05-05 00:49 | 44.00911 | -150.21314 | 37242 ft | 500 kts | 97° |
| 2026-05-05 00:49 | 44.00504 | -150.11676 | 37248 ft | 500 kts | 98° |
| 2026-05-05 00:50 | 44.00089 | -150.02033 | 37249 ft | 500 kts | 98° |
| 2026-05-05 00:50 | 43.99617 | -149.92407 | 37250 ft | 499 kts | 99° |
| 2026-05-05 00:51 | 43.99061 | -149.82802 | 37236 ft | 499 kts | 99° |
| 2026-05-05 00:51 | 43.98494 | -149.73202 | 37250 ft | 498 kts | 99° |
| 2026-05-05 00:52 | 43.97935 | -149.63683 | 37250 ft | 498 kts | 99° |
| 2026-05-05 00:52 | 43.97372 | -149.54099 | 37250 ft | 498 kts | 99° |
| 2026-05-05 00:53 | 43.96802 | -149.44520 | 37234 ft | 497 kts | 99° |
| 2026-05-05 00:53 | 43.96226 | -149.34977 | 37242 ft | 496 kts | 99° |
| 2026-05-05 00:54 | 43.95643 | -149.25462 | 37253 ft | 495 kts | 99° |
| 2026-05-05 00:54 | 43.95051 | -149.15948 | 37255 ft | 494 kts | 99° |
| 2026-05-05 00:55 | 43.94453 | -149.06450 | 37250 ft | 494 kts | 99° |
| 2026-05-05 00:55 | 43.93848 | -148.96976 | 37252 ft | 493 kts | 99° |
| 2026-05-05 00:56 | 43.93236 | -148.87510 | 37255 ft | 493 kts | 99° |
| 2026-05-05 00:56 | 43.92615 | -148.78042 | 37255 ft | 492 kts | 99° |
| 2026-05-05 00:57 | 43.91988 | -148.68588 | 37255 ft | 492 kts | 99° |
| 2026-05-05 00:57 | 43.91353 | -148.59127 | 37251 ft | 492 kts | 99° |
| 2026-05-05 00:58 | 43.90710 | -148.49681 | 37258 ft | 492 kts | 99° |
| 2026-05-05 00:58 | 43.90060 | -148.40234 | 37261 ft | 492 kts | 99° |
| 2026-05-05 00:59 | 43.89402 | -148.30802 | 37259 ft | 492 kts | 99° |
| 2026-05-05 00:59 | 43.88737 | -148.21374 | 37254 ft | 491 kts | 100° |
| 2026-05-05 01:00 | 43.88066 | -148.11962 | 37254 ft | 490 kts | 100° |
| 2026-05-05 01:00 | 43.87393 | -148.02629 | 37261 ft | 490 kts | 100° |
| 2026-05-05 01:01 | 43.86705 | -147.93227 | 37264 ft | 490 kts | 100° |
| 2026-05-05 01:01 | 43.86011 | -147.83838 | 37249 ft | 490 kts | 100° |
| 2026-05-05 01:02 | 43.85311 | -147.74460 | 37264 ft | 489 kts | 100° |
| 2026-05-05 01:02 | 43.84603 | -147.65093 | 37267 ft | 488 kts | 101° |
| 2026-05-05 01:03 | 43.83889 | -147.55740 | 37265 ft | 488 kts | 101° |
| 2026-05-05 01:03 | 43.83169 | -147.46413 | 37241 ft | 487 kts | 101° |
| 2026-05-05 01:04 | 43.82443 | -147.37105 | 37261 ft | 485 kts | 101° |
| 2026-05-05 01:04 | 43.81342 | -147.23194 | 37264 ft | 484 kts | 101° |
| 2026-05-05 01:05 | 43.80600 | -147.13925 | 37281 ft | 484 kts | 101° |
| 2026-05-05 01:05 | 43.79851 | -147.04681 | 37261 ft | 483 kts | 101° |
| 2026-05-05 01:06 | 43.79224 | -146.97006 | 37271 ft | 483 kts | 101° |
| 2026-05-05 01:06 | 43.78463 | -146.87772 | 37272 ft | 482 kts | 101° |
| 2026-05-05 01:07 | 43.77696 | -146.78556 | 37262 ft | 482 kts | 102° |
| 2026-05-05 01:07 | 43.76923 | -146.69359 | 37273 ft | 481 kts | 102° |
| 2026-05-05 01:08 | 43.76146 | -146.60209 | 37269 ft | 478 kts | 103° |
| 2026-05-05 01:08 | 43.75365 | -146.51093 | 37268 ft | 476 kts | 103° |
| 2026-05-05 01:09 | 43.74578 | -146.42003 | 37271 ft | 475 kts | 103° |
| 2026-05-05 01:09 | 43.73786 | -146.32946 | 37277 ft | 474 kts | 103° |
| 2026-05-05 01:10 | 43.72988 | -146.23906 | 37270 ft | 473 kts | 103° |
| 2026-05-05 01:10 | 43.72185 | -146.14883 | 37279 ft | 472 kts | 103° |
| 2026-05-05 01:11 | 43.71376 | -146.05880 | 37277 ft | 472 kts | 103° |
| 2026-05-05 01:11 | 43.70560 | -145.96878 | 37277 ft | 472 kts | 103° |
| 2026-05-05 01:12 | 43.69737 | -145.87872 | 37251 ft | 471 kts | 104° |
| 2026-05-05 01:12 | 43.68912 | -145.78910 | 37268 ft | 470 kts | 104° |
| 2026-05-05 01:13 | 43.68080 | -145.69974 | 37278 ft | 468 kts | 104° |
| 2026-05-05 01:13 | 43.67244 | -145.61064 | 37279 ft | 467 kts | 104° |
| 2026-05-05 01:14 | 43.66402 | -145.52176 | 37282 ft | 467 kts | 104° |
| 2026-05-05 01:14 | 43.65556 | -145.43309 | 37282 ft | 465 kts | 104° |
| 2026-05-05 01:15 | 43.64703 | -145.34448 | 37293 ft | 465 kts | 104° |
| 2026-05-05 01:15 | 43.63844 | -145.25607 | 37277 ft | 465 kts | 104° |
| 2026-05-05 01:16 | 43.62978 | -145.16756 | 37275 ft | 465 kts | 105° |
| 2026-05-05 01:16 | 43.62111 | -145.07965 | 37270 ft | 465 kts | 105° |
| 2026-05-05 01:17 | 43.61227 | -144.99071 | 37277 ft | 465 kts | 105° |
| 2026-05-05 01:17 | 43.60342 | -144.90248 | 37282 ft | 464 kts | 105° |
| 2026-05-05 01:18 | 43.59451 | -144.81425 | 37282 ft | 464 kts | 105° |
| 2026-05-05 01:18 | 43.58559 | -144.72674 | 37282 ft | 464 kts | 105° |
| 2026-05-05 01:19 | 43.57656 | -144.63871 | 37285 ft | 464 kts | 105° |
| 2026-05-05 01:19 | 43.56745 | -144.55069 | 37285 ft | 464 kts | 105° |
| 2026-05-05 01:20 | 43.55828 | -144.46270 | 37282 ft | 464 kts | 105° |
| 2026-05-05 01:20 | 43.54904 | -144.37468 | 37282 ft | 464 kts | 105° |
| 2026-05-05 01:21 | 43.53975 | -144.28689 | 37282 ft | 462 kts | 105° |
| 2026-05-05 01:21 | 43.53040 | -144.19920 | 37285 ft | 462 kts | 105° |
| 2026-05-05 01:22 | 43.52100 | -144.11170 | 37278 ft | 461 kts | 105° |
| 2026-05-05 01:22 | 43.51156 | -144.02439 | 37284 ft | 460 kts | 106° |
| 2026-05-05 01:23 | 43.50207 | -143.93737 | 37261 ft | 459 kts | 106° |
| 2026-05-05 01:23 | 43.49255 | -143.85062 | 37274 ft | 458 kts | 106° |
| 2026-05-05 01:24 | 43.48296 | -143.76399 | 37292 ft | 457 kts | 106° |
| 2026-05-05 01:24 | 43.47332 | -143.67750 | 37293 ft | 457 kts | 106° |
| 2026-05-05 01:25 | 43.46362 | -143.59102 | 37295 ft | 457 kts | 106° |
| 2026-05-05 01:25 | 43.45385 | -143.50457 | 37286 ft | 457 kts | 106° |
| 2026-05-05 01:26 | 43.44402 | -143.41818 | 37292 ft | 457 kts | 106° |
| 2026-05-05 01:26 | 43.43412 | -143.33175 | 37291 ft | 457 kts | 106° |
| 2026-05-05 01:27 | 43.42416 | -143.24536 | 37274 ft | 457 kts | 106° |
| 2026-05-05 01:27 | 43.41413 | -143.15903 | 37269 ft | 457 kts | 106° |
| 2026-05-05 01:28 | 43.40403 | -143.07260 | 37288 ft | 458 kts | 106° |
| 2026-05-05 01:28 | 43.39384 | -142.98612 | 37293 ft | 459 kts | 106° |
| 2026-05-05 01:29 | 43.38358 | -142.89949 | 37291 ft | 459 kts | 106° |
| 2026-05-05 01:29 | 43.37324 | -142.81285 | 37292 ft | 460 kts | 106° |
| 2026-05-05 01:30 | 43.36284 | -142.72621 | 37287 ft | 459 kts | 106° |
| 2026-05-05 01:30 | 43.35236 | -142.63950 | 37292 ft | 460 kts | 106° |
| 2026-05-05 01:31 | 43.34182 | -142.55289 | 37290 ft | 460 kts | 106° |
| 2026-05-05 01:31 | 43.33127 | -142.46674 | 37288 ft | 460 kts | 106° |
| 2026-05-05 01:32 | 43.32060 | -142.38018 | 37260 ft | 460 kts | 106° |
| 2026-05-05 01:32 | 43.30986 | -142.29363 | 37287 ft | 460 kts | 106° |
| 2026-05-05 01:33 | 43.29906 | -142.20715 | 37293 ft | 460 kts | 106° |
| 2026-05-05 01:33 | 43.28820 | -142.12075 | 37289 ft | 460 kts | 106° |
| 2026-05-05 01:34 | 43.27727 | -142.03433 | 37268 ft | 460 kts | 106° |
| 2026-05-05 01:34 | 43.26627 | -141.94789 | 37278 ft | 460 kts | 106° |
| 2026-05-05 01:35 | 43.25521 | -141.86150 | 37294 ft | 460 kts | 106° |
| 2026-05-05 01:35 | 43.24407 | -141.77507 | 37295 ft | 460 kts | 106° |
| 2026-05-05 01:36 | 43.23286 | -141.68862 | 37281 ft | 461 kts | 106° |
| 2026-05-05 01:36 | 43.22158 | -141.60220 | 37280 ft | 461 kts | 106° |
| 2026-05-05 01:37 | 43.21024 | -141.51578 | 37269 ft | 461 kts | 106° |
| 2026-05-05 01:37 | 43.19883 | -141.42934 | 37287 ft | 461 kts | 106° |
| 2026-05-05 01:38 | 43.18734 | -141.34292 | 37287 ft | 461 kts | 106° |
| 2026-05-05 01:38 | 43.17577 | -141.25638 | 37262 ft | 462 kts | 106° |
| 2026-05-05 01:39 | 43.16412 | -141.16973 | 37279 ft | 462 kts | 106° |
| 2026-05-05 01:39 | 43.15241 | -141.08312 | 37284 ft | 463 kts | 106° |
| 2026-05-05 01:40 | 43.14061 | -140.99645 | 37281 ft | 463 kts | 106° |
| 2026-05-05 01:40 | 43.12874 | -140.90973 | 37280 ft | 464 kts | 106° |
| 2026-05-05 01:41 | 43.11679 | -140.82293 | 37280 ft | 464 kts | 106° |
| 2026-05-05 01:41 | 43.10480 | -140.73633 | 37280 ft | 464 kts | 106° |
| 2026-05-05 01:42 | 43.09273 | -140.64970 | 37258 ft | 463 kts | 106° |
| 2026-05-05 01:42 | 43.08059 | -140.56311 | 37271 ft | 463 kts | 106° |
| 2026-05-05 01:43 | 43.06849 | -140.47720 | 37269 ft | 463 kts | 106° |
| 2026-05-05 01:43 | 43.05624 | -140.39077 | 37275 ft | 463 kts | 106° |
| 2026-05-05 01:44 | 43.04391 | -140.30432 | 37266 ft | 463 kts | 106° |
| 2026-05-05 01:44 | 43.03152 | -140.21788 | 37268 ft | 463 kts | 106° |
| 2026-05-05 01:45 | 43.01907 | -140.13149 | 37249 ft | 464 kts | 106° |
| 2026-05-05 01:45 | 43.00656 | -140.04506 | 37269 ft | 463 kts | 106° |
| 2026-05-05 01:46 | 42.99388 | -139.95873 | 37270 ft | 463 kts | 106° |
| 2026-05-05 01:46 | 42.98076 | -139.87259 | 37262 ft | 463 kts | 106° |
| 2026-05-05 01:47 | 42.96752 | -139.78652 | 37258 ft | 463 kts | 106° |
| 2026-05-05 01:47 | 42.95428 | -139.70057 | 37258 ft | 463 kts | 106° |
| 2026-05-05 01:48 | 42.94101 | -139.61462 | 37264 ft | 463 kts | 106° |
| 2026-05-05 01:48 | 42.92768 | -139.52874 | 37262 ft | 463 kts | 106° |
| 2026-05-05 01:49 | 42.91427 | -139.44275 | 37265 ft | 463 kts | 106° |
| 2026-05-05 01:49 | 42.90081 | -139.35696 | 37259 ft | 463 kts | 105° |
| 2026-05-05 01:50 | 42.88728 | -139.27107 | 37266 ft | 463 kts | 105° |
| 2026-05-05 01:50 | 42.87367 | -139.18519 | 37259 ft | 464 kts | 105° |
| 2026-05-05 01:51 | 42.86229 | -139.11371 | 37256 ft | 464 kts | 106° |
| 2026-05-05 01:51 | 42.84857 | -139.02789 | 37242 ft | 464 kts | 105° |
| 2026-05-05 01:52 | 42.83240 | -138.92738 | 37255 ft | 464 kts | 105° |
| 2026-05-05 01:52 | 42.82088 | -138.85607 | 37253 ft | 464 kts | 105° |
| 2026-05-05 01:53 | 42.80696 | -138.77034 | 37254 ft | 463 kts | 105° |
| 2026-05-05 01:53 | 42.79298 | -138.68473 | 37250 ft | 463 kts | 105° |
| 2026-05-05 01:54 | 42.77897 | -138.59928 | 37251 ft | 462 kts | 105° |
| 2026-05-05 01:54 | 42.76494 | -138.51419 | 37248 ft | 460 kts | 105° |
| 2026-05-05 01:55 | 42.75089 | -138.42939 | 37247 ft | 459 kts | 105° |
| 2026-05-05 01:55 | 42.73680 | -138.34471 | 37248 ft | 458 kts | 105° |
| 2026-05-05 01:56 | 42.72266 | -138.26026 | 37242 ft | 457 kts | 105° |
| 2026-05-05 01:56 | 42.70849 | -138.17597 | 37244 ft | 457 kts | 105° |
| 2026-05-05 01:57 | 42.69429 | -138.09187 | 37238 ft | 456 kts | 105° |
| 2026-05-05 01:57 | 42.68005 | -138.00796 | 37242 ft | 456 kts | 105° |
| 2026-05-05 01:58 | 42.66574 | -137.92408 | 37237 ft | 455 kts | 105° |
| 2026-05-05 01:58 | 42.65141 | -137.84044 | 37237 ft | 455 kts | 105° |
| 2026-05-05 01:59 | 42.63702 | -137.75684 | 37238 ft | 455 kts | 105° |
| 2026-05-05 01:59 | 42.62256 | -137.67323 | 37235 ft | 455 kts | 105° |
| 2026-05-05 02:00 | 42.60806 | -137.58971 | 37238 ft | 455 kts | 105° |
| 2026-05-05 02:00 | 42.59358 | -137.50680 | 37237 ft | 454 kts | 105° |
| 2026-05-05 02:01 | 42.57896 | -137.42342 | 37231 ft | 454 kts | 105° |
| 2026-05-05 02:01 | 42.56428 | -137.34008 | 37232 ft | 454 kts | 105° |
| 2026-05-05 02:02 | 42.54955 | -137.25687 | 37230 ft | 454 kts | 105° |
| 2026-05-05 02:02 | 42.53473 | -137.17351 | 37223 ft | 454 kts | 105° |
| 2026-05-05 02:03 | 42.51988 | -137.09039 | 37224 ft | 454 kts | 105° |
| 2026-05-05 02:03 | 42.50499 | -137.00738 | 37219 ft | 453 kts | 105° |
| 2026-05-05 02:04 | 42.49002 | -136.92432 | 37223 ft | 453 kts | 105° |
| 2026-05-05 02:04 | 42.47501 | -136.84142 | 37225 ft | 453 kts | 105° |
| 2026-05-05 02:05 | 42.45996 | -136.75865 | 37216 ft | 452 kts | 105° |
| 2026-05-05 02:05 | 42.44488 | -136.67606 | 37215 ft | 452 kts | 105° |
| 2026-05-05 02:06 | 42.42973 | -136.59345 | 37214 ft | 451 kts | 105° |
| 2026-05-05 02:06 | 42.41456 | -136.51108 | 37211 ft | 451 kts | 105° |
| 2026-05-05 02:07 | 42.39932 | -136.42876 | 37204 ft | 451 kts | 105° |
| 2026-05-05 02:07 | 42.38404 | -136.34656 | 37207 ft | 450 kts | 105° |
| 2026-05-05 02:08 | 42.36872 | -136.26443 | 37205 ft | 450 kts | 105° |
| 2026-05-05 02:08 | 42.35334 | -136.18241 | 37201 ft | 450 kts | 105° |
| 2026-05-05 02:09 | 42.33791 | -136.10046 | 37203 ft | 450 kts | 105° |
| 2026-05-05 02:09 | 42.32242 | -136.01853 | 37202 ft | 450 kts | 105° |
| 2026-05-05 02:10 | 42.30685 | -135.93654 | 37198 ft | 450 kts | 105° |
| 2026-05-05 02:10 | 42.29122 | -135.85459 | 37192 ft | 451 kts | 105° |
| 2026-05-05 02:11 | 42.27553 | -135.77264 | 37194 ft | 451 kts | 105° |
| 2026-05-05 02:11 | 42.25979 | -135.69076 | 37187 ft | 451 kts | 105° |
| 2026-05-05 02:12 | 42.23603 | -135.56785 | 37185 ft | 451 kts | 105° |
| 2026-05-05 02:13 | 42.22013 | -135.48604 | 37186 ft | 451 kts | 105° |
| 2026-05-05 02:13 | 42.20417 | -135.40426 | 37185 ft | 451 kts | 104° |
| 2026-05-05 02:14 | 42.18818 | -135.32262 | 37184 ft | 450 kts | 104° |
| 2026-05-05 02:14 | 42.17224 | -135.24159 | 37176 ft | 450 kts | 104° |
| 2026-05-05 02:15 | 42.15615 | -135.16017 | 37172 ft | 450 kts | 104° |
| 2026-05-05 02:15 | 42.14002 | -135.07883 | 37181 ft | 449 kts | 104° |
| 2026-05-05 02:16 | 42.12383 | -134.99759 | 37169 ft | 449 kts | 104° |
| 2026-05-05 02:16 | 42.10759 | -134.91636 | 37173 ft | 449 kts | 104° |
| 2026-05-05 02:17 | 42.09131 | -134.83528 | 37171 ft | 449 kts | 104° |
| 2026-05-05 02:17 | 42.07498 | -134.75427 | 37174 ft | 449 kts | 104° |
| 2026-05-05 02:18 | 42.05858 | -134.67323 | 37167 ft | 448 kts | 104° |
| 2026-05-05 02:18 | 42.04216 | -134.59240 | 37160 ft | 448 kts | 104° |
| 2026-05-05 02:19 | 42.02567 | -134.51159 | 37161 ft | 448 kts | 104° |
| 2026-05-05 02:19 | 42.00914 | -134.43087 | 37157 ft | 447 kts | 104° |
| 2026-05-05 02:20 | 41.99256 | -134.35026 | 37163 ft | 447 kts | 104° |
| 2026-05-05 02:20 | 41.97595 | -134.26979 | 37156 ft | 447 kts | 104° |
| 2026-05-05 02:21 | 41.95929 | -134.18940 | 37153 ft | 446 kts | 104° |
| 2026-05-05 02:21 | 41.94258 | -134.10904 | 37152 ft | 446 kts | 104° |
| 2026-05-05 02:22 | 41.92584 | -134.02889 | 37159 ft | 446 kts | 104° |
| 2026-05-05 02:22 | 41.90904 | -133.94876 | 37154 ft | 445 kts | 104° |
| 2026-05-05 02:23 | 41.89221 | -133.86882 | 37147 ft | 445 kts | 104° |
| 2026-05-05 02:23 | 41.87546 | -133.78950 | 37151 ft | 444 kts | 104° |
| 2026-05-05 02:24 | 41.85856 | -133.70980 | 37149 ft | 444 kts | 104° |
| 2026-05-05 02:24 | 41.84161 | -133.63019 | 37141 ft | 444 kts | 104° |
| 2026-05-05 02:25 | 41.82462 | -133.55066 | 37142 ft | 444 kts | 104° |
| 2026-05-05 02:25 | 41.80757 | -133.47118 | 37142 ft | 444 kts | 104° |
| 2026-05-05 02:26 | 41.79047 | -133.39171 | 37142 ft | 444 kts | 105° |
| 2026-05-05 02:26 | 41.77330 | -133.31226 | 37141 ft | 444 kts | 104° |
| 2026-05-05 02:27 | 41.75607 | -133.23284 | 37138 ft | 444 kts | 104° |
| 2026-05-05 02:27 | 41.73880 | -133.15351 | 37138 ft | 444 kts | 104° |
| 2026-05-05 02:28 | 41.72149 | -133.07426 | 37132 ft | 443 kts | 105° |
| 2026-05-05 02:28 | 41.70413 | -132.99511 | 37138 ft | 443 kts | 104° |
| 2026-05-05 02:29 | 41.68675 | -132.91615 | 37126 ft | 442 kts | 104° |
| 2026-05-05 02:29 | 41.66934 | -132.83735 | 37125 ft | 441 kts | 104° |
| 2026-05-05 02:30 | 41.65191 | -132.75871 | 37130 ft | 441 kts | 105° |
| 2026-05-05 02:30 | 41.63444 | -132.68019 | 37139 ft | 440 kts | 104° |
| 2026-05-05 02:31 | 41.61693 | -132.60180 | 37125 ft | 440 kts | 104° |
| 2026-05-05 02:31 | 41.59938 | -132.52349 | 37127 ft | 440 kts | 104° |
| 2026-05-05 02:32 | 41.58180 | -132.44531 | 37125 ft | 439 kts | 104° |
| 2026-05-05 02:32 | 41.56415 | -132.36710 | 37128 ft | 439 kts | 104° |
| 2026-05-05 02:33 | 41.54648 | -132.28910 | 37129 ft | 439 kts | 104° |
| 2026-05-05 02:33 | 41.52877 | -132.21116 | 37121 ft | 438 kts | 104° |
| 2026-05-05 02:34 | 41.51102 | -132.13337 | 37121 ft | 438 kts | 104° |
| 2026-05-05 02:34 | 41.49326 | -132.05577 | 37115 ft | 437 kts | 104° |
| 2026-05-05 02:35 | 41.47544 | -131.97821 | 37130 ft | 437 kts | 104° |
| 2026-05-05 02:35 | 41.45760 | -131.90081 | 37118 ft | 436 kts | 104° |
| 2026-05-05 02:36 | 41.43973 | -131.82354 | 37113 ft | 436 kts | 104° |
| 2026-05-05 02:36 | 41.42487 | -131.75949 | 37114 ft | 436 kts | 104° |
| 2026-05-05 02:37 | 41.40388 | -131.66934 | 37127 ft | 435 kts | 104° |
| 2026-05-05 02:37 | 41.38894 | -131.60539 | 37103 ft | 435 kts | 104° |
| 2026-05-05 02:38 | 41.37092 | -131.52851 | 37106 ft | 435 kts | 104° |
| 2026-05-05 02:38 | 41.35289 | -131.45180 | 37105 ft | 434 kts | 104° |
| 2026-05-05 02:39 | 41.33480 | -131.37514 | 37100 ft | 434 kts | 104° |
| 2026-05-05 02:39 | 41.31669 | -131.29864 | 37106 ft | 434 kts | 104° |
| 2026-05-05 02:40 | 41.29852 | -131.22215 | 37099 ft | 433 kts | 104° |
| 2026-05-05 02:40 | 41.28034 | -131.14585 | 37102 ft | 433 kts | 104° |
| 2026-05-05 02:41 | 41.26212 | -131.06966 | 37099 ft | 432 kts | 104° |
| 2026-05-05 02:41 | 41.24387 | -130.99360 | 37113 ft | 432 kts | 104° |
| 2026-05-05 02:42 | 41.22558 | -130.91758 | 37105 ft | 432 kts | 104° |
| 2026-05-05 02:42 | 41.20723 | -130.84159 | 37100 ft | 432 kts | 104° |
| 2026-05-05 02:43 | 41.18886 | -130.76580 | 37098 ft | 431 kts | 104° |
| 2026-05-05 02:43 | 41.17044 | -130.69000 | 37113 ft | 431 kts | 104° |
| 2026-05-05 02:44 | 41.15199 | -130.61432 | 37101 ft | 431 kts | 104° |
| 2026-05-05 02:44 | 41.13349 | -130.53871 | 37096 ft | 431 kts | 104° |
| 2026-05-05 02:45 | 41.11496 | -130.46321 | 37093 ft | 430 kts | 104° |
| 2026-05-05 02:45 | 41.09652 | -130.38831 | 37095 ft | 430 kts | 104° |
| 2026-05-05 02:46 | 41.07792 | -130.31299 | 37095 ft | 430 kts | 104° |
| 2026-05-05 02:46 | 41.05926 | -130.23771 | 37095 ft | 430 kts | 104° |
| 2026-05-05 02:47 | 41.04056 | -130.16245 | 37091 ft | 430 kts | 104° |
| 2026-05-05 02:47 | 41.02181 | -130.08722 | 37089 ft | 430 kts | 104° |
| 2026-05-05 02:48 | 41.00299 | -130.01198 | 37093 ft | 431 kts | 104° |
| 2026-05-05 02:48 | 40.98352 | -129.93694 | 37091 ft | 431 kts | 105° |
| 2026-05-05 02:49 | 40.96336 | -129.86231 | 37087 ft | 430 kts | 105° |
| 2026-05-05 02:49 | 40.94320 | -129.78783 | 37082 ft | 430 kts | 105° |
| 2026-05-05 02:50 | 40.92310 | -129.71344 | 37081 ft | 429 kts | 105° |
| 2026-05-05 02:50 | 40.90303 | -129.63917 | 37098 ft | 429 kts | 105° |
| 2026-05-05 02:51 | 40.88293 | -129.56495 | 37080 ft | 429 kts | 105° |
| 2026-05-05 02:51 | 40.86280 | -129.49082 | 37074 ft | 429 kts | 105° |
| 2026-05-05 02:52 | 40.84262 | -129.41676 | 37099 ft | 429 kts | 105° |
| 2026-05-05 02:52 | 40.82238 | -129.34270 | 37083 ft | 429 kts | 105° |
| 2026-05-05 02:53 | 40.80208 | -129.26866 | 37079 ft | 429 kts | 105° |
| 2026-05-05 02:53 | 40.78173 | -129.19465 | 37078 ft | 429 kts | 105° |
| 2026-05-05 02:54 | 40.76137 | -129.12078 | 37099 ft | 428 kts | 105° |
| 2026-05-05 02:54 | 40.74097 | -129.04701 | 37083 ft | 428 kts | 105° |
| 2026-05-05 02:55 | 40.72051 | -128.97323 | 37088 ft | 428 kts | 105° |
| 2026-05-05 02:55 | 40.70001 | -128.89953 | 37077 ft | 428 kts | 105° |
| 2026-05-05 02:56 | 40.67948 | -128.82596 | 37077 ft | 428 kts | 105° |
| 2026-05-05 02:56 | 40.65891 | -128.75243 | 37079 ft | 428 kts | 105° |
| 2026-05-05 02:57 | 40.63845 | -128.67949 | 37076 ft | 428 kts | 105° |
| 2026-05-05 02:57 | 40.61993 | -128.61367 | 37073 ft | 428 kts | 105° |
| 2026-05-05 02:58 | 40.59920 | -128.54020 | 37073 ft | 428 kts | 105° |
| 2026-05-05 02:58 | 40.57847 | -128.46690 | 37081 ft | 428 kts | 105° |
| 2026-05-05 02:59 | 40.55762 | -128.39342 | 37073 ft | 429 kts | 105° |
| 2026-05-05 02:59 | 40.53673 | -128.32000 | 37074 ft | 429 kts | 105° |
| 2026-05-05 03:00 | 40.51583 | -128.24673 | 37073 ft | 429 kts | 105° |
| 2026-05-05 03:00 | 40.49483 | -128.17337 | 37086 ft | 429 kts | 105° |
| 2026-05-05 03:01 | 40.47381 | -128.10009 | 37075 ft | 429 kts | 105° |
| 2026-05-05 03:01 | 40.45271 | -128.02678 | 37064 ft | 429 kts | 105° |
| 2026-05-05 03:02 | 40.43158 | -127.95355 | 37068 ft | 429 kts | 105° |
| 2026-05-05 03:02 | 40.41041 | -127.88042 | 37086 ft | 429 kts | 105° |
| 2026-05-05 03:03 | 40.38915 | -127.80713 | 37075 ft | 430 kts | 105° |
| 2026-05-05 03:03 | 40.36783 | -127.73389 | 37065 ft | 430 kts | 105° |
| 2026-05-05 03:04 | 40.34646 | -127.66065 | 37059 ft | 430 kts | 105° |
| 2026-05-05 03:04 | 40.32521 | -127.58803 | 37088 ft | 429 kts | 105° |
| 2026-05-05 03:05 | 40.30365 | -127.51452 | 37061 ft | 429 kts | 105° |
| 2026-05-05 03:05 | 40.28217 | -127.44158 | 37060 ft | 429 kts | 105° |
| 2026-05-05 03:06 | 40.26067 | -127.36872 | 37062 ft | 429 kts | 105° |
| 2026-05-05 03:06 | 40.23912 | -127.29587 | 37060 ft | 429 kts | 105° |
| 2026-05-05 03:07 | 40.21756 | -127.22319 | 37063 ft | 429 kts | 105° |
| 2026-05-05 03:07 | 40.19592 | -127.15045 | 37063 ft | 429 kts | 105° |
| 2026-05-05 03:08 | 40.17424 | -127.07773 | 37059 ft | 429 kts | 105° |
| 2026-05-05 03:08 | 40.15251 | -127.00507 | 37059 ft | 429 kts | 105° |
| 2026-05-05 03:09 | 40.12933 | -126.93282 | 37053 ft | 432 kts | 108° |
| 2026-05-05 03:09 | 40.10483 | -126.86110 | 37058 ft | 432 kts | 108° |
| 2026-05-05 03:10 | 40.08032 | -126.78931 | 37058 ft | 432 kts | 108° |
| 2026-05-05 03:10 | 40.05600 | -126.71760 | 37087 ft | 432 kts | 108° |
| 2026-05-05 03:11 | 40.03166 | -126.64571 | 37063 ft | 433 kts | 108° |
| 2026-05-05 03:11 | 40.00742 | -126.57420 | 37062 ft | 434 kts | 108° |
| 2026-05-05 03:12 | 39.98296 | -126.50224 | 37058 ft | 434 kts | 108° |
| 2026-05-05 03:12 | 39.95842 | -126.43027 | 37073 ft | 435 kts | 108° |
| 2026-05-05 03:13 | 39.93381 | -126.35823 | 37061 ft | 435 kts | 108° |
| 2026-05-05 03:13 | 39.90911 | -126.28613 | 37057 ft | 436 kts | 108° |
| 2026-05-05 03:14 | 39.88435 | -126.21407 | 37060 ft | 436 kts | 108° |
| 2026-05-05 03:14 | 39.85956 | -126.14206 | 37074 ft | 437 kts | 108° |
| 2026-05-05 03:15 | 39.83466 | -126.06992 | 37065 ft | 438 kts | 108° |
| 2026-05-05 03:15 | 39.80966 | -125.99768 | 37062 ft | 438 kts | 108° |
| 2026-05-05 03:16 | 39.78456 | -125.92535 | 37064 ft | 439 kts | 108° |
| 2026-05-05 03:16 | 39.75946 | -125.85319 | 37075 ft | 440 kts | 108° |
| 2026-05-05 03:17 | 39.73420 | -125.78074 | 37053 ft | 440 kts | 108° |
| 2026-05-05 03:17 | 39.70884 | -125.70822 | 37055 ft | 441 kts | 108° |
| 2026-05-05 03:18 | 39.68344 | -125.63574 | 37065 ft | 441 kts | 108° |
| 2026-05-05 03:18 | 39.65798 | -125.56326 | 37065 ft | 442 kts | 109° |
| 2026-05-05 03:19 | 39.61959 | -125.45433 | 37067 ft | 443 kts | 109° |
| 2026-05-05 03:19 | 39.59390 | -125.38168 | 37064 ft | 443 kts | 109° |
| 2026-05-05 03:20 | 39.56817 | -125.30910 | 37077 ft | 444 kts | 109° |
| 2026-05-05 03:20 | 39.54671 | -125.24869 | 37070 ft | 444 kts | 109° |
| 2026-05-05 03:21 | 39.51645 | -125.16371 | 37061 ft | 445 kts | 109° |
| 2026-05-05 03:21 | 39.49487 | -125.10327 | 37065 ft | 445 kts | 109° |
| 2026-05-05 03:22 | 39.46886 | -125.03056 | 37078 ft | 446 kts | 110° |
| 2026-05-05 03:22 | 39.44276 | -124.95781 | 37067 ft | 446 kts | 110° |
| 2026-05-05 03:23 | 39.41655 | -124.88493 | 37063 ft | 447 kts | 110° |
| 2026-05-05 03:23 | 39.39033 | -124.81220 | 37063 ft | 447 kts | 110° |
| 2026-05-05 03:24 | 39.36397 | -124.73926 | 37069 ft | 448 kts | 110° |
| 2026-05-05 03:24 | 39.33752 | -124.66627 | 37067 ft | 449 kts | 110° |
| 2026-05-05 03:25 | 39.31103 | -124.59334 | 37065 ft | 449 kts | 110° |
| 2026-05-05 03:25 | 39.28453 | -124.52057 | 37065 ft | 449 kts | 110° |
| 2026-05-05 03:26 | 39.25793 | -124.44768 | 37072 ft | 449 kts | 110° |
| 2026-05-05 03:26 | 39.23126 | -124.37479 | 37068 ft | 449 kts | 110° |
| 2026-05-05 03:27 | 39.20462 | -124.30216 | 37066 ft | 449 kts | 110° |
| 2026-05-05 03:27 | 39.17786 | -124.22936 | 37071 ft | 450 kts | 110° |
| 2026-05-05 03:28 | 39.15096 | -124.15639 | 37067 ft | 451 kts | 111° |
| 2026-05-05 03:28 | 39.12394 | -124.08325 | 37061 ft | 453 kts | 111° |
| 2026-05-05 03:29 | 39.09681 | -124.01000 | 37064 ft | 453 kts | 111° |
| 2026-05-05 03:29 | 39.06960 | -123.93671 | 37065 ft | 455 kts | 111° |
| 2026-05-05 03:30 | 39.04227 | -123.86328 | 37059 ft | 455 kts | 111° |
| 2026-05-05 03:30 | 39.01504 | -123.79026 | 37059 ft | 456 kts | 111° |
| 2026-05-05 03:31 | 38.98091 | -123.72146 | 37060 ft | 466 kts | 130° |
| 2026-05-05 03:31 | 38.93411 | -123.66332 | 37060 ft | 469 kts | 131° |
| 2026-05-05 03:32 | 38.91052 | -123.63417 | 36951 ft | 472 kts | 131° |
| 2026-05-05 03:32 | 38.88677 | -123.60446 | 36295 ft | 480 kts | 130° |
| 2026-05-05 03:32 | 38.86309 | -123.57455 | 35871 ft | 477 kts | 129° |
| 2026-05-05 03:32 | 38.83957 | -123.54465 | 34983 ft | 468 kts | 129° |
| 2026-05-05 03:33 | 38.81670 | -123.51552 | 34407 ft | 460 kts | 128° |
| 2026-05-05 03:33 | 38.79419 | -123.48674 | 33815 ft | 455 kts | 128° |
| 2026-05-05 03:33 | 38.77189 | -123.45824 | 33230 ft | 450 kts | 128° |
| 2026-05-05 03:33 | 38.74981 | -123.43007 | 32679 ft | 445 kts | 128° |
| 2026-05-05 03:34 | 38.72799 | -123.40227 | 32172 ft | 440 kts | 128° |
| 2026-05-05 03:34 | 38.70639 | -123.37479 | 31658 ft | 436 kts | 128° |
| 2026-05-05 03:34 | 38.68501 | -123.34763 | 31158 ft | 431 kts | 128° |
| 2026-05-05 03:34 | 38.66386 | -123.32076 | 30653 ft | 427 kts | 128° |
| 2026-05-05 03:35 | 38.64295 | -123.29422 | 30149 ft | 423 kts | 128° |
| 2026-05-05 03:35 | 38.62211 | -123.26780 | 29615 ft | 419 kts | 128° |
| 2026-05-05 03:35 | 38.60156 | -123.24178 | 29058 ft | 415 kts | 128° |
| 2026-05-05 03:35 | 38.58118 | -123.21599 | 28554 ft | 409 kts | 128° |
| 2026-05-05 03:36 | 38.56110 | -123.19057 | 28076 ft | 405 kts | 128° |
| 2026-05-05 03:36 | 38.54111 | -123.16531 | 27562 ft | 402 kts | 128° |
| 2026-05-05 03:36 | 38.52132 | -123.14034 | 27083 ft | 399 kts | 128° |
| 2026-05-05 03:36 | 38.50162 | -123.11550 | 26588 ft | 396 kts | 128° |
| 2026-05-05 03:37 | 38.48213 | -123.09092 | 26107 ft | 393 kts | 128° |
| 2026-05-05 03:37 | 38.46274 | -123.06649 | 25648 ft | 390 kts | 129° |
| 2026-05-05 03:37 | 38.44345 | -123.04216 | 25176 ft | 388 kts | 129° |
| 2026-05-05 03:37 | 38.42428 | -123.01801 | 24710 ft | 387 kts | 129° |
| 2026-05-05 03:38 | 38.40522 | -122.99401 | 24263 ft | 385 kts | 129° |
| 2026-05-05 03:38 | 38.38617 | -122.97005 | 23774 ft | 384 kts | 129° |
| 2026-05-05 03:38 | 38.36721 | -122.94621 | 23258 ft | 383 kts | 129° |
| 2026-05-05 03:38 | 38.34831 | -122.92249 | 22751 ft | 380 kts | 129° |
| 2026-05-05 03:39 | 38.32953 | -122.89892 | 22267 ft | 378 kts | 129° |
| 2026-05-05 03:39 | 38.31086 | -122.87551 | 21791 ft | 375 kts | 129° |
| 2026-05-05 03:39 | 38.29237 | -122.85234 | 21356 ft | 372 kts | 129° |
| 2026-05-05 03:39 | 38.27396 | -122.82929 | 20889 ft | 370 kts | 129° |
| 2026-05-05 03:40 | 38.25586 | -122.80668 | 20598 ft | 363 kts | 129° |
| 2026-05-05 03:40 | 38.23773 | -122.78407 | 20043 ft | 364 kts | 130° |
| 2026-05-05 03:40 | 38.21677 | -122.76565 | 19555 ft | 375 kts | 150° |
| 2026-05-05 03:40 | 38.19160 | -122.75654 | 19141 ft | 377 kts | 162° |
| 2026-05-05 03:41 | 38.16599 | -122.74960 | 18695 ft | 376 kts | 162° |
| 2026-05-05 03:41 | 38.14048 | -122.74257 | 18260 ft | 374 kts | 162° |
| 2026-05-05 03:41 | 38.11515 | -122.73544 | 17787 ft | 371 kts | 161° |
| 2026-05-05 03:41 | 38.09131 | -122.72483 | 17313 ft | 358 kts | 146° |
| 2026-05-05 03:42 | 38.07156 | -122.70677 | 16894 ft | 345 kts | 129° |
| 2026-05-05 03:42 | 38.05776 | -122.68290 | 16539 ft | 329 kts | 111° |
| 2026-05-05 03:42 | 38.04911 | -122.65660 | 16331 ft | 317 kts | 105° |
| 2026-05-05 03:42 | 38.04205 | -122.63044 | 16188 ft | 309 kts | 103° |
| 2026-05-05 03:43 | 38.03541 | -122.60456 | 15874 ft | 311 kts | 103° |
| 2026-05-05 03:43 | 38.02741 | -122.57886 | 15308 ft | 321 kts | 117° |
| 2026-05-05 03:43 | 38.01301 | -122.55653 | 14876 ft | 331 kts | 129° |
| 2026-05-05 03:43 | 37.99635 | -122.53603 | 14462 ft | 337 kts | 132° |
| 2026-05-05 03:44 | 37.97908 | -122.51569 | 13991 ft | 339 kts | 133° |
| 2026-05-05 03:44 | 37.96174 | -122.49534 | 13511 ft | 340 kts | 133° |
| 2026-05-05 03:44 | 37.94446 | -122.47506 | 13075 ft | 338 kts | 133° |
| 2026-05-05 03:44 | 37.92733 | -122.45485 | 12677 ft | 335 kts | 133° |
| 2026-05-05 03:45 | 37.91040 | -122.43475 | 12250 ft | 333 kts | 133° |
| 2026-05-05 03:45 | 37.89361 | -122.41465 | 11818 ft | 331 kts | 133° |
| 2026-05-05 03:45 | 37.87697 | -122.39455 | 11417 ft | 330 kts | 133° |
| 2026-05-05 03:45 | 37.86049 | -122.37447 | 11069 ft | 329 kts | 133° |
| 2026-05-05 03:46 | 37.84396 | -122.35413 | 11013 ft | 330 kts | 133° |
| 2026-05-05 03:46 | 37.82789 | -122.33414 | 11007 ft | 319 kts | 133° |
| 2026-05-05 03:46 | 37.81240 | -122.31465 | 10981 ft | 309 kts | 133° |
| 2026-05-05 03:46 | 37.79725 | -122.29553 | 11006 ft | 306 kts | 133° |
| 2026-05-05 03:47 | 37.78260 | -122.27702 | 10900 ft | 299 kts | 133° |
| 2026-05-05 03:47 | 37.76802 | -122.25861 | 10703 ft | 293 kts | 133° |
| 2026-05-05 03:47 | 37.75363 | -122.24044 | 10531 ft | 285 kts | 133° |
| 2026-05-05 03:47 | 37.73967 | -122.22281 | 10266 ft | 282 kts | 133° |
| 2026-05-05 03:48 | 37.72600 | -122.20557 | 9952 ft | 281 kts | 133° |
| 2026-05-05 03:48 | 37.71205 | -122.18788 | 9617 ft | 280 kts | 133° |
| 2026-05-05 03:48 | 37.69841 | -122.17051 | 9317 ft | 277 kts | 133° |
| 2026-05-05 03:48 | 37.68499 | -122.15358 | 9009 ft | 274 kts | 133° |
| 2026-05-05 03:49 | 37.67150 | -122.13624 | 8723 ft | 272 kts | 133° |
| 2026-05-05 03:49 | 37.65834 | -122.11918 | 8413 ft | 271 kts | 133° |
| 2026-05-05 03:49 | 37.64527 | -122.10214 | 8117 ft | 269 kts | 133° |
| 2026-05-05 03:49 | 37.63185 | -122.08649 | 7992 ft | 259 kts | 148° |
| 2026-05-05 03:50 | 37.61492 | -122.07918 | 7741 ft | 260 kts | 174° |
| 2026-05-05 03:50 | 37.59683 | -122.07884 | 7413 ft | 260 kts | 181° |
| 2026-05-05 03:50 | 37.57864 | -122.07985 | 7060 ft | 262 kts | 182° |
| 2026-05-05 03:50 | 37.56054 | -122.08099 | 6801 ft | 258 kts | 182° |
| 2026-05-05 03:51 | 37.54322 | -122.07808 | 6382 ft | 258 kts | 157° |
| 2026-05-05 03:51 | 37.52892 | -122.06479 | 5990 ft | 260 kts | 128° |
| 2026-05-05 03:51 | 37.52112 | -122.04415 | 5693 ft | 257 kts | 107° |
| 2026-05-05 03:51 | 37.51701 | -122.02251 | 5486 ft | 252 kts | 104° |
| 2026-05-05 03:52 | 37.51358 | -122.00125 | 5272 ft | 248 kts | 103° |
| 2026-05-05 03:52 | 37.51030 | -121.97984 | 4961 ft | 248 kts | 103° |
| 2026-05-05 03:52 | 37.50709 | -121.95849 | 4678 ft | 247 kts | 103° |
| 2026-05-05 03:52 | 37.50389 | -121.93750 | 4394 ft | 246 kts | 102° |
| 2026-05-05 03:53 | 37.50058 | -121.91675 | 4236 ft | 239 kts | 103° |
| 2026-05-05 03:53 | 37.49698 | -121.89589 | 3855 ft | 238 kts | 110° |
| 2026-05-05 03:53 | 37.48854 | -121.87875 | 3476 ft | 235 kts | 141° |
| 2026-05-05 03:53 | 37.47412 | -121.86986 | 3160 ft | 231 kts | 175° |
| 2026-05-05 03:54 | 37.45887 | -121.87230 | 3048 ft | 217 kts | 209° |
| 2026-05-05 03:54 | 37.44817 | -121.88448 | 3049 ft | 208 kts | 245° |
| 2026-05-05 03:54 | 37.44431 | -121.90213 | 3325 ft | 216 kts | 262° |
| 2026-05-05 03:54 | 37.44220 | -121.92101 | 3580 ft | 221 kts | 262° |
| 2026-05-05 03:55 | 37.44023 | -121.94037 | 3795 ft | 223 kts | 263° |
| 2026-05-05 03:55 | 37.43840 | -121.95989 | 3909 ft | 227 kts | 263° |
| 2026-05-05 03:55 | 37.43656 | -121.97958 | 3963 ft | 226 kts | 263° |
| 2026-05-05 03:55 | 37.43474 | -121.99925 | 4005 ft | 225 kts | 262° |
| 2026-05-05 03:56 | 37.43302 | -122.01881 | 4002 ft | 224 kts | 263° |
| 2026-05-05 03:56 | 37.43375 | -122.03849 | 4017 ft | 237 kts | 290° |
| 2026-05-05 03:56 | 37.44414 | -122.05491 | 4012 ft | 247 kts | 326° |
| 2026-05-05 03:56 | 37.45958 | -122.06423 | 4017 ft | 250 kts | 332° |
| 2026-05-05 03:57 | 37.47495 | -122.07455 | 4006 ft | 249 kts | 327° |
| 2026-05-05 03:57 | 37.48952 | -122.08566 | 4001 ft | 243 kts | 327° |
| 2026-05-05 03:57 | 37.50295 | -122.09832 | 3988 ft | 240 kts | 309° |
| 2026-05-05 03:57 | 37.51177 | -122.11539 | 3986 ft | 226 kts | 298° |
| 2026-05-05 03:58 | 37.51925 | -122.13245 | 3991 ft | 221 kts | 296° |
| 2026-05-05 03:58 | 37.52660 | -122.14983 | 3691 ft | 228 kts | 296° |
| 2026-05-05 03:58 | 37.53400 | -122.16744 | 3444 ft | 227 kts | 297° |
| 2026-05-05 03:58 | 37.54135 | -122.18496 | 3111 ft | 222 kts | 297° |
| 2026-05-05 03:59 | 37.54838 | -122.20173 | 2813 ft | 211 kts | 297° |
| 2026-05-05 03:59 | 37.55514 | -122.21786 | 2536 ft | 206 kts | 297° |
| 2026-05-05 03:59 | 37.56180 | -122.23375 | 2257 ft | 203 kts | 297° |
| 2026-05-05 03:59 | 37.56819 | -122.24900 | 1985 ft | 190 kts | 297° |
| 2026-05-05 04:00 | 37.57411 | -122.26310 | 1763 ft | 176 kts | 297° |
| 2026-05-05 04:00 | 37.57958 | -122.27617 | 1521 ft | 160 kts | 297° |
| 2026-05-05 04:00 | 37.58453 | -122.28795 | 1303 ft | 143 kts | 297° |
| 2026-05-05 04:00 | 37.58892 | -122.29846 | 1112 ft | 133 kts | 298° |
| 2026-05-05 04:01 | 37.59331 | -122.30893 | 932 ft | 135 kts | 297° |
| 2026-05-05 04:01 | 37.59767 | -122.31941 | 743 ft | 137 kts | 298° |
| 2026-05-05 04:01 | 37.60214 | -122.33000 | 547 ft | 136 kts | 299° |
| 2026-05-05 04:01 | 37.60641 | -122.34023 | 337 ft | 131 kts | 298° |
| 2026-05-05 04:02 | 37.61067 | -122.35041 | 204 ft | 131 kts | 299° |
| 2026-05-05 04:02 | 37.61499 | -122.36071 | 40 ft | 133 kts | 298° |
| 2026-05-05 04:02 | 37.61897 | -122.37010 | 31 ft | 103 kts | 298° |
| 2026-05-05 04:02 | 37.62149 | -122.37609 | 31 ft | 61 kts | 297° |
| 2026-05-05 04:03 | 37.62332 | -122.38047 | 28 ft | 53 kts | 298° |
| 2026-05-05 04:03 | 37.62441 | -122.38304 | 28 ft | 47 kts | 298° |
| 2026-05-05 04:03 | 37.62503 | -122.38631 | 25 ft | 16 kts | 268° |
| 2026-05-05 04:03 | 37.62500 | -122.38718 | 30 ft | 3 kts | 268° |
| 2026-05-05 04:04 | 37.62500 | -122.38736 | 29 ft | 2 kts | 268° |
| 2026-05-05 04:04 | 37.62499 | -122.38744 | 29 ft | 0 kts | 268° |
| 2026-05-05 04:05 | 37.62499 | -122.38747 | 29 ft | 1 kts | 268° |
| 2026-05-05 04:06 | 37.62498 | -122.38783 | 29 ft | 6 kts | 267° |
| 2026-05-05 04:06 | 37.62486 | -122.38837 | 31 ft | 7 kts | 239° |
| 2026-05-05 04:06 | 37.62451 | -122.38877 | 30 ft | 7 kts | 211° |
| 2026-05-05 04:06 | 37.62404 | -122.38909 | 31 ft | 8 kts | 207° |
| 2026-05-05 04:07 | 37.62362 | -122.38943 | 29 ft | 7 kts | 225° |
| 2026-05-05 04:07 | 37.62336 | -122.39001 | 27 ft | 8 kts | 248° |
| 2026-05-05 04:07 | 37.62317 | -122.39070 | 26 ft | 9 kts | 253° |
| 2026-05-05 04:07 | 37.62296 | -122.39145 | 30 ft | 9 kts | 244° |
| 2026-05-05 04:08 | 37.62248 | -122.39196 | 31 ft | 10 kts | 210° |
| 2026-05-05 04:08 | 37.62187 | -122.39239 | 28 ft | 10 kts | 209° |
| 2026-05-05 04:08 | 37.62123 | -122.39280 | 30 ft | 11 kts | 206° |
| 2026-05-05 04:08 | 37.62056 | -122.39321 | 29 ft | 10 kts | 206° |
| 2026-05-05 04:09 | 37.62002 | -122.39306 | 28 ft | 9 kts | 132° |
| 2026-05-05 04:09 | 37.61972 | -122.39235 | 31 ft | 10 kts | 116° |
| 2026-05-05 04:09 | 37.61950 | -122.39178 | 31 ft | 0 kts | 116° |
| 2026-05-05 04:09 | 37.61950 | -122.39177 | 31 ft | 1 kts | 116° |
| 2026-05-05 04:10 | 37.61950 | -122.39178 | 31 ft | 3 kts | 116° |
| 2026-05-05 04:10 | 37.61960 | -122.39204 | 29 ft | 7 kts | 116° |
| 2026-05-05 04:10 | 37.61964 | -122.39216 | 29 ft | 2 kts | 130° |
| 2026-05-05 04:10 | 37.61949 | -122.39217 | 31 ft | 2 kts | 197° |
| 2026-05-05 04:11 | 37.61930 | -122.39229 | 31 ft | 4 kts | 207° |
| 2026-05-05 04:11 | 37.61908 | -122.39244 | 27 ft | 2 kts | 207° |
| 2026-05-05 04:11 | 37.61896 | -122.39251 | 29 ft | 0 kts | 207° |
| 2026-05-05 04:11 | 37.61895 | -122.39252 | 27 ft | 0 kts | 207° |